<?xml version="1.0" encoding="UTF-8" standalone="no" ?>
<gpx xmlns="http://www.topografix.com/GPX/1/1" xmlns:xsi="http://www.w3.org/2001/XMLSchema-instance" xsi:schemaLocation="http://www.topografix.com/GPX/1/1 http://www.topografix.com/GPX/1/1/gpx.xsd" version="1.1" creator="VisuGPX - https://www.visugpx.com">
  <metadata>
    <name>Parcours n°10 </name>
    <desc><![CDATA[Petite randonnée sympathique avec de bons passages en plaine et forêt]]></desc>
  </metadata>
  <trk>
    <name><![CDATA[ACTIVE LOG 008]]></name>
    <trkseg>
      <trkpt lat="49.51302" lon="0.63914">
        <ele>115.4956055</ele>
        <time>2014-09-14T12:11:04Z</time>
      </trkpt>
      <trkpt lat="49.51302" lon="0.63922">
        <ele>106.3630371</ele>
        <time>2014-09-14T12:11:41Z</time>
      </trkpt>
      <trkpt lat="49.51291" lon="0.63927">
        <ele>102.0371094</ele>
        <time>2014-09-14T12:12:13Z</time>
      </trkpt>
      <trkpt lat="49.51289" lon="0.63925">
        <ele>103.4790039</ele>
        <time>2014-09-14T12:12:15Z</time>
      </trkpt>
      <trkpt lat="49.51285" lon="0.63914">
        <ele>104.4404297</ele>
        <time>2014-09-14T12:12:24Z</time>
      </trkpt>
      <trkpt lat="49.51285" lon="0.63907">
        <ele>104.9210205</ele>
        <time>2014-09-14T12:12:31Z</time>
      </trkpt>
      <trkpt lat="49.51283" lon="0.63901">
        <ele>105.4017334</ele>
        <time>2014-09-14T12:12:34Z</time>
      </trkpt>
      <trkpt lat="49.51281" lon="0.63888">
        <ele>104.4404297</ele>
        <time>2014-09-14T12:12:42Z</time>
      </trkpt>
      <trkpt lat="49.51283" lon="0.63875">
        <ele>102.5177002</ele>
        <time>2014-09-14T12:12:49Z</time>
      </trkpt>
      <trkpt lat="49.51285" lon="0.63873">
        <ele>102.0371094</ele>
        <time>2014-09-14T12:12:51Z</time>
      </trkpt>
      <trkpt lat="49.51285" lon="0.63864">
        <ele>102.0371094</ele>
        <time>2014-09-14T12:12:56Z</time>
      </trkpt>
      <trkpt lat="49.51287" lon="0.63852">
        <ele>100.5950928</ele>
        <time>2014-09-14T12:13:04Z</time>
      </trkpt>
      <trkpt lat="49.51289" lon="0.63845">
        <ele>100.114502</ele>
        <time>2014-09-14T12:13:10Z</time>
      </trkpt>
      <trkpt lat="49.51287" lon="0.63834">
        <ele>99.1530762</ele>
        <time>2014-09-14T12:13:18Z</time>
      </trkpt>
      <trkpt lat="49.51285" lon="0.63828">
        <ele>97.2304688</ele>
        <time>2014-09-14T12:13:25Z</time>
      </trkpt>
      <trkpt lat="49.51278" lon="0.63815">
        <ele>96.2692871</ele>
        <time>2014-09-14T12:13:35Z</time>
      </trkpt>
      <trkpt lat="49.51274" lon="0.63811">
        <ele>96.2692871</ele>
        <time>2014-09-14T12:13:39Z</time>
      </trkpt>
      <trkpt lat="49.51276" lon="0.63804">
        <ele>95.7884521</ele>
        <time>2014-09-14T12:13:44Z</time>
      </trkpt>
      <trkpt lat="49.51283" lon="0.638">
        <ele>94.3465576</ele>
        <time>2014-09-14T12:13:52Z</time>
      </trkpt>
      <trkpt lat="49.51291" lon="0.63796">
        <ele>93.3851318</ele>
        <time>2014-09-14T12:13:59Z</time>
      </trkpt>
      <trkpt lat="49.513" lon="0.63792">
        <ele>91.4625244</ele>
        <time>2014-09-14T12:14:07Z</time>
      </trkpt>
      <trkpt lat="49.51308" lon="0.63785">
        <ele>89.539917</ele>
        <time>2014-09-14T12:14:14Z</time>
      </trkpt>
      <trkpt lat="49.51317" lon="0.63779">
        <ele>90.0206299</ele>
        <time>2014-09-14T12:14:23Z</time>
      </trkpt>
      <trkpt lat="49.51328" lon="0.6377">
        <ele>90.5013428</ele>
        <time>2014-09-14T12:14:34Z</time>
      </trkpt>
      <trkpt lat="49.51334" lon="0.63757">
        <ele>90.0206299</ele>
        <time>2014-09-14T12:14:42Z</time>
      </trkpt>
      <trkpt lat="49.51345" lon="0.63749">
        <ele>90.5013428</ele>
        <time>2014-09-14T12:14:52Z</time>
      </trkpt>
      <trkpt lat="49.51347" lon="0.63746">
        <ele>90.0206299</ele>
        <time>2014-09-14T12:14:56Z</time>
      </trkpt>
      <trkpt lat="49.51349" lon="0.63742">
        <ele>91.9432373</ele>
        <time>2014-09-14T12:15:01Z</time>
      </trkpt>
      <trkpt lat="49.51358" lon="0.63736">
        <ele>95.3077393</ele>
        <time>2014-09-14T12:15:08Z</time>
      </trkpt>
      <trkpt lat="49.51362" lon="0.63734">
        <ele>95.3077393</ele>
        <time>2014-09-14T12:15:12Z</time>
      </trkpt>
      <trkpt lat="49.51366" lon="0.63734">
        <ele>94.8271484</ele>
        <time>2014-09-14T12:15:15Z</time>
      </trkpt>
      <trkpt lat="49.51371" lon="0.63727">
        <ele>94.3465576</ele>
        <time>2014-09-14T12:15:21Z</time>
      </trkpt>
      <trkpt lat="49.51375" lon="0.63719">
        <ele>93.8658447</ele>
        <time>2014-09-14T12:15:26Z</time>
      </trkpt>
      <trkpt lat="49.51381" lon="0.63714">
        <ele>93.8658447</ele>
        <time>2014-09-14T12:15:32Z</time>
      </trkpt>
      <trkpt lat="49.51384" lon="0.63712">
        <ele>93.3851318</ele>
        <time>2014-09-14T12:15:35Z</time>
      </trkpt>
      <trkpt lat="49.5139" lon="0.63708">
        <ele>92.904541</ele>
        <time>2014-09-14T12:15:41Z</time>
      </trkpt>
      <trkpt lat="49.51394" lon="0.63708">
        <ele>92.904541</ele>
        <time>2014-09-14T12:15:44Z</time>
      </trkpt>
      <trkpt lat="49.51399" lon="0.63706">
        <ele>92.4239502</ele>
        <time>2014-09-14T12:15:49Z</time>
      </trkpt>
      <trkpt lat="49.51401" lon="0.63704">
        <ele>92.4239502</ele>
        <time>2014-09-14T12:15:51Z</time>
      </trkpt>
      <trkpt lat="49.51405" lon="0.63704">
        <ele>91.9432373</ele>
        <time>2014-09-14T12:15:53Z</time>
      </trkpt>
      <trkpt lat="49.51409" lon="0.63699">
        <ele>89.539917</ele>
        <time>2014-09-14T12:15:59Z</time>
      </trkpt>
      <trkpt lat="49.51411" lon="0.63699">
        <ele>89.539917</ele>
        <time>2014-09-14T12:16:00Z</time>
      </trkpt>
      <trkpt lat="49.51414" lon="0.63697">
        <ele>87.6171875</ele>
        <time>2014-09-14T12:16:04Z</time>
      </trkpt>
      <trkpt lat="49.51416" lon="0.63695">
        <ele>86.6560059</ele>
        <time>2014-09-14T12:16:07Z</time>
      </trkpt>
      <trkpt lat="49.5142" lon="0.63691">
        <ele>85.6945801</ele>
        <time>2014-09-14T12:16:12Z</time>
      </trkpt>
      <trkpt lat="49.51422" lon="0.63686">
        <ele>85.6945801</ele>
        <time>2014-09-14T12:16:15Z</time>
      </trkpt>
      <trkpt lat="49.51427" lon="0.63682">
        <ele>86.175293</ele>
        <time>2014-09-14T12:16:20Z</time>
      </trkpt>
      <trkpt lat="49.51431" lon="0.63678">
        <ele>87.6171875</ele>
        <time>2014-09-14T12:16:24Z</time>
      </trkpt>
      <trkpt lat="49.51439" lon="0.63667">
        <ele>90.9819336</ele>
        <time>2014-09-14T12:16:34Z</time>
      </trkpt>
      <trkpt lat="49.51442" lon="0.63667">
        <ele>91.4625244</ele>
        <time>2014-09-14T12:16:35Z</time>
      </trkpt>
      <trkpt lat="49.51446" lon="0.63654">
        <ele>93.8658447</ele>
        <time>2014-09-14T12:16:44Z</time>
      </trkpt>
      <trkpt lat="49.5145" lon="0.63633">
        <ele>96.2692871</ele>
        <time>2014-09-14T12:16:56Z</time>
      </trkpt>
      <trkpt lat="49.51452" lon="0.63626">
        <ele>95.7884521</ele>
        <time>2014-09-14T12:17:00Z</time>
      </trkpt>
      <trkpt lat="49.51457" lon="0.63616">
        <ele>95.7884521</ele>
        <time>2014-09-14T12:17:07Z</time>
      </trkpt>
      <trkpt lat="49.51459" lon="0.63613">
        <ele>95.7884521</ele>
        <time>2014-09-14T12:17:09Z</time>
      </trkpt>
      <trkpt lat="49.51461" lon="0.63609">
        <ele>95.3077393</ele>
        <time>2014-09-14T12:17:14Z</time>
      </trkpt>
      <trkpt lat="49.51465" lon="0.63601">
        <ele>95.3077393</ele>
        <time>2014-09-14T12:17:20Z</time>
      </trkpt>
      <trkpt lat="49.51472" lon="0.63583">
        <ele>95.7884521</ele>
        <time>2014-09-14T12:17:31Z</time>
      </trkpt>
      <trkpt lat="49.51474" lon="0.63575">
        <ele>97.7111816</ele>
        <time>2014-09-14T12:17:37Z</time>
      </trkpt>
      <trkpt lat="49.51476" lon="0.63562">
        <ele>98.1918945</ele>
        <time>2014-09-14T12:17:44Z</time>
      </trkpt>
      <trkpt lat="49.51478" lon="0.63547">
        <ele>98.1918945</ele>
        <time>2014-09-14T12:17:53Z</time>
      </trkpt>
      <trkpt lat="49.51478" lon="0.63528">
        <ele>97.2304688</ele>
        <time>2014-09-14T12:18:04Z</time>
      </trkpt>
      <trkpt lat="49.51476" lon="0.63508">
        <ele>97.2304688</ele>
        <time>2014-09-14T12:18:16Z</time>
      </trkpt>
      <trkpt lat="49.51469" lon="0.63489">
        <ele>100.114502</ele>
        <time>2014-09-14T12:18:28Z</time>
      </trkpt>
      <trkpt lat="49.51467" lon="0.63474">
        <ele>101.5563965</ele>
        <time>2014-09-14T12:18:38Z</time>
      </trkpt>
      <trkpt lat="49.51463" lon="0.63459">
        <ele>101.5563965</ele>
        <time>2014-09-14T12:18:48Z</time>
      </trkpt>
      <trkpt lat="49.51457" lon="0.63444">
        <ele>101.0756836</ele>
        <time>2014-09-14T12:18:59Z</time>
      </trkpt>
      <trkpt lat="49.51452" lon="0.63422">
        <ele>102.998291</ele>
        <time>2014-09-14T12:19:12Z</time>
      </trkpt>
      <trkpt lat="49.51446" lon="0.63405">
        <ele>102.998291</ele>
        <time>2014-09-14T12:19:22Z</time>
      </trkpt>
      <trkpt lat="49.51439" lon="0.63386">
        <ele>104.4404297</ele>
        <time>2014-09-14T12:19:34Z</time>
      </trkpt>
      <trkpt lat="49.51435" lon="0.63369">
        <ele>107.8050537</ele>
        <time>2014-09-14T12:19:45Z</time>
      </trkpt>
      <trkpt lat="49.51433" lon="0.63362">
        <ele>109.2469482</ele>
        <time>2014-09-14T12:19:50Z</time>
      </trkpt>
      <trkpt lat="49.51429" lon="0.63345">
        <ele>110.208252</ele>
        <time>2014-09-14T12:20:00Z</time>
      </trkpt>
      <trkpt lat="49.51422" lon="0.63328">
        <ele>112.6115723</ele>
        <time>2014-09-14T12:20:11Z</time>
      </trkpt>
      <trkpt lat="49.51418" lon="0.63309">
        <ele>114.0535889</ele>
        <time>2014-09-14T12:20:22Z</time>
      </trkpt>
      <trkpt lat="49.51411" lon="0.63292">
        <ele>114.5341797</ele>
        <time>2014-09-14T12:20:32Z</time>
      </trkpt>
      <trkpt lat="49.51405" lon="0.6327">
        <ele>116.4567871</ele>
        <time>2014-09-14T12:20:45Z</time>
      </trkpt>
      <trkpt lat="49.51399" lon="0.63253">
        <ele>119.3408203</ele>
        <time>2014-09-14T12:20:56Z</time>
      </trkpt>
      <trkpt lat="49.51394" lon="0.63234">
        <ele>121.7441406</ele>
        <time>2014-09-14T12:21:08Z</time>
      </trkpt>
      <trkpt lat="49.5139" lon="0.63219">
        <ele>123.666748</ele>
        <time>2014-09-14T12:21:19Z</time>
      </trkpt>
      <trkpt lat="49.51386" lon="0.63199">
        <ele>123.666748</ele>
        <time>2014-09-14T12:21:31Z</time>
      </trkpt>
      <trkpt lat="49.51381" lon="0.63189">
        <ele>123.1861572</ele>
        <time>2014-09-14T12:21:38Z</time>
      </trkpt>
      <trkpt lat="49.51377" lon="0.63174">
        <ele>122.2247314</ele>
        <time>2014-09-14T12:21:46Z</time>
      </trkpt>
      <trkpt lat="49.51373" lon="0.63156">
        <ele>122.2247314</ele>
        <time>2014-09-14T12:21:57Z</time>
      </trkpt>
      <trkpt lat="49.51369" lon="0.63135">
        <ele>120.7828369</ele>
        <time>2014-09-14T12:22:09Z</time>
      </trkpt>
      <trkpt lat="49.51362" lon="0.63113">
        <ele>119.8214111</ele>
        <time>2014-09-14T12:22:21Z</time>
      </trkpt>
      <trkpt lat="49.51358" lon="0.63096">
        <ele>119.3408203</ele>
        <time>2014-09-14T12:22:31Z</time>
      </trkpt>
      <trkpt lat="49.51354" lon="0.63077">
        <ele>119.3408203</ele>
        <time>2014-09-14T12:22:42Z</time>
      </trkpt>
      <trkpt lat="49.51349" lon="0.63056">
        <ele>118.8601074</ele>
        <time>2014-09-14T12:22:54Z</time>
      </trkpt>
      <trkpt lat="49.51345" lon="0.63034">
        <ele>118.3793945</ele>
        <time>2014-09-14T12:23:06Z</time>
      </trkpt>
      <trkpt lat="49.51339" lon="0.6301">
        <ele>117.8988037</ele>
        <time>2014-09-14T12:23:19Z</time>
      </trkpt>
      <trkpt lat="49.51336" lon="0.62993">
        <ele>117.4182129</ele>
        <time>2014-09-14T12:23:28Z</time>
      </trkpt>
      <trkpt lat="49.51334" lon="0.62978">
        <ele>117.4182129</ele>
        <time>2014-09-14T12:23:37Z</time>
      </trkpt>
      <trkpt lat="49.51332" lon="0.62957">
        <ele>117.8988037</ele>
        <time>2014-09-14T12:23:49Z</time>
      </trkpt>
      <trkpt lat="49.5133" lon="0.62935">
        <ele>116.9375</ele>
        <time>2014-09-14T12:23:59Z</time>
      </trkpt>
      <trkpt lat="49.5133" lon="0.62914">
        <ele>116.4567871</ele>
        <time>2014-09-14T12:24:11Z</time>
      </trkpt>
      <trkpt lat="49.51328" lon="0.62886">
        <ele>116.9375</ele>
        <time>2014-09-14T12:24:26Z</time>
      </trkpt>
      <trkpt lat="49.51328" lon="0.62862">
        <ele>116.9375</ele>
        <time>2014-09-14T12:24:39Z</time>
      </trkpt>
      <trkpt lat="49.51328" lon="0.62843">
        <ele>117.8988037</ele>
        <time>2014-09-14T12:24:52Z</time>
      </trkpt>
      <trkpt lat="49.51328" lon="0.62839">
        <ele>117.8988037</ele>
        <time>2014-09-14T12:24:55Z</time>
      </trkpt>
      <trkpt lat="49.5133" lon="0.62832">
        <ele>118.3793945</ele>
        <time>2014-09-14T12:25:00Z</time>
      </trkpt>
      <trkpt lat="49.51343" lon="0.62832">
        <ele>118.8601074</ele>
        <time>2014-09-14T12:25:11Z</time>
      </trkpt>
      <trkpt lat="49.51356" lon="0.6283">
        <ele>119.3408203</ele>
        <time>2014-09-14T12:25:22Z</time>
      </trkpt>
      <trkpt lat="49.51366" lon="0.6283">
        <ele>120.302124</ele>
        <time>2014-09-14T12:25:33Z</time>
      </trkpt>
      <trkpt lat="49.51379" lon="0.62828">
        <ele>120.7828369</ele>
        <time>2014-09-14T12:25:45Z</time>
      </trkpt>
      <trkpt lat="49.51394" lon="0.62828">
        <ele>121.2635498</ele>
        <time>2014-09-14T12:25:57Z</time>
      </trkpt>
      <trkpt lat="49.51407" lon="0.62828">
        <ele>121.7441406</ele>
        <time>2014-09-14T12:26:08Z</time>
      </trkpt>
      <trkpt lat="49.5142" lon="0.62826">
        <ele>121.7441406</ele>
        <time>2014-09-14T12:26:20Z</time>
      </trkpt>
      <trkpt lat="49.51433" lon="0.62826">
        <ele>122.2247314</ele>
        <time>2014-09-14T12:26:32Z</time>
      </trkpt>
      <trkpt lat="49.51446" lon="0.62826">
        <ele>122.7054443</ele>
        <time>2014-09-14T12:26:44Z</time>
      </trkpt>
      <trkpt lat="49.51457" lon="0.62824">
        <ele>123.1861572</ele>
        <time>2014-09-14T12:26:55Z</time>
      </trkpt>
      <trkpt lat="49.51461" lon="0.62824">
        <ele>122.7054443</ele>
        <time>2014-09-14T12:26:59Z</time>
      </trkpt>
      <trkpt lat="49.51463" lon="0.62822">
        <ele>122.7054443</ele>
        <time>2014-09-14T12:27:01Z</time>
      </trkpt>
      <trkpt lat="49.51474" lon="0.62819">
        <ele>121.2635498</ele>
        <time>2014-09-14T12:27:13Z</time>
      </trkpt>
      <trkpt lat="49.51487" lon="0.62817">
        <ele>120.302124</ele>
        <time>2014-09-14T12:27:24Z</time>
      </trkpt>
      <trkpt lat="49.51497" lon="0.62813">
        <ele>118.8601074</ele>
        <time>2014-09-14T12:27:36Z</time>
      </trkpt>
      <trkpt lat="49.51508" lon="0.62811">
        <ele>117.8988037</ele>
        <time>2014-09-14T12:27:46Z</time>
      </trkpt>
      <trkpt lat="49.51521" lon="0.62809">
        <ele>116.4567871</ele>
        <time>2014-09-14T12:27:58Z</time>
      </trkpt>
      <trkpt lat="49.51534" lon="0.62807">
        <ele>116.4567871</ele>
        <time>2014-09-14T12:28:10Z</time>
      </trkpt>
      <trkpt lat="49.51547" lon="0.62804">
        <ele>116.4567871</ele>
        <time>2014-09-14T12:28:22Z</time>
      </trkpt>
      <trkpt lat="49.5156" lon="0.62798">
        <ele>115.9761963</ele>
        <time>2014-09-14T12:28:35Z</time>
      </trkpt>
      <trkpt lat="49.51564" lon="0.62798">
        <ele>115.4956055</ele>
        <time>2014-09-14T12:28:40Z</time>
      </trkpt>
      <trkpt lat="49.51568" lon="0.62796">
        <ele>115.0148926</ele>
        <time>2014-09-14T12:28:44Z</time>
      </trkpt>
      <trkpt lat="49.51581" lon="0.62792">
        <ele>114.0535889</ele>
        <time>2014-09-14T12:28:55Z</time>
      </trkpt>
      <trkpt lat="49.51594" lon="0.62787">
        <ele>114.5341797</ele>
        <time>2014-09-14T12:29:07Z</time>
      </trkpt>
      <trkpt lat="49.51605" lon="0.62783">
        <ele>114.5341797</ele>
        <time>2014-09-14T12:29:18Z</time>
      </trkpt>
      <trkpt lat="49.51617" lon="0.62779">
        <ele>114.0535889</ele>
        <time>2014-09-14T12:29:30Z</time>
      </trkpt>
      <trkpt lat="49.51628" lon="0.62777">
        <ele>113.572998</ele>
        <time>2014-09-14T12:29:40Z</time>
      </trkpt>
      <trkpt lat="49.51633" lon="0.62774">
        <ele>113.0922852</ele>
        <time>2014-09-14T12:29:48Z</time>
      </trkpt>
      <trkpt lat="49.51648" lon="0.6277">
        <ele>111.6502686</ele>
        <time>2014-09-14T12:30:02Z</time>
      </trkpt>
      <trkpt lat="49.5166" lon="0.62764">
        <ele>110.6888428</ele>
        <time>2014-09-14T12:30:16Z</time>
      </trkpt>
      <trkpt lat="49.51669" lon="0.62762">
        <ele>110.6888428</ele>
        <time>2014-09-14T12:30:27Z</time>
      </trkpt>
      <trkpt lat="49.51671" lon="0.62762">
        <ele>110.6888428</ele>
        <time>2014-09-14T12:30:49Z</time>
      </trkpt>
      <trkpt lat="49.51678" lon="0.62757">
        <ele>110.6888428</ele>
        <time>2014-09-14T12:30:55Z</time>
      </trkpt>
      <trkpt lat="49.51686" lon="0.62755">
        <ele>110.208252</ele>
        <time>2014-09-14T12:31:05Z</time>
      </trkpt>
      <trkpt lat="49.5169" lon="0.62755">
        <ele>110.208252</ele>
        <time>2014-09-14T12:31:08Z</time>
      </trkpt>
      <trkpt lat="49.51701" lon="0.62753">
        <ele>109.7276611</ele>
        <time>2014-09-14T12:31:18Z</time>
      </trkpt>
      <trkpt lat="49.51703" lon="0.62753">
        <ele>109.7276611</ele>
        <time>2014-09-14T12:31:20Z</time>
      </trkpt>
      <trkpt lat="49.51714" lon="0.62751">
        <ele>110.6888428</ele>
        <time>2014-09-14T12:31:31Z</time>
      </trkpt>
      <trkpt lat="49.51729" lon="0.62747">
        <ele>111.1695557</ele>
        <time>2014-09-14T12:31:42Z</time>
      </trkpt>
      <trkpt lat="49.5174" lon="0.62742">
        <ele>111.6502686</ele>
        <time>2014-09-14T12:31:53Z</time>
      </trkpt>
      <trkpt lat="49.51753" lon="0.62738">
        <ele>112.6115723</ele>
        <time>2014-09-14T12:32:05Z</time>
      </trkpt>
      <trkpt lat="49.51763" lon="0.62732">
        <ele>113.0922852</ele>
        <time>2014-09-14T12:32:17Z</time>
      </trkpt>
      <trkpt lat="49.51766" lon="0.62729">
        <ele>113.572998</ele>
        <time>2014-09-14T12:32:20Z</time>
      </trkpt>
      <trkpt lat="49.5177" lon="0.62721">
        <ele>114.0535889</ele>
        <time>2014-09-14T12:32:26Z</time>
      </trkpt>
      <trkpt lat="49.51772" lon="0.62716">
        <ele>115.0148926</ele>
        <time>2014-09-14T12:32:29Z</time>
      </trkpt>
      <trkpt lat="49.51776" lon="0.62706">
        <ele>115.9761963</ele>
        <time>2014-09-14T12:32:37Z</time>
      </trkpt>
      <trkpt lat="49.51783" lon="0.62691">
        <ele>116.4567871</ele>
        <time>2014-09-14T12:32:48Z</time>
      </trkpt>
      <trkpt lat="49.51793" lon="0.62676">
        <ele>116.4567871</ele>
        <time>2014-09-14T12:33:00Z</time>
      </trkpt>
      <trkpt lat="49.51804" lon="0.62659">
        <ele>116.9375</ele>
        <time>2014-09-14T12:33:12Z</time>
      </trkpt>
      <trkpt lat="49.51813" lon="0.62644">
        <ele>116.9375</ele>
        <time>2014-09-14T12:33:24Z</time>
      </trkpt>
      <trkpt lat="49.51823" lon="0.62631">
        <ele>116.9375</ele>
        <time>2014-09-14T12:33:36Z</time>
      </trkpt>
      <trkpt lat="49.51826" lon="0.62624">
        <ele>116.9375</ele>
        <time>2014-09-14T12:33:40Z</time>
      </trkpt>
      <trkpt lat="49.5183" lon="0.62622">
        <ele>116.9375</ele>
        <time>2014-09-14T12:33:45Z</time>
      </trkpt>
      <trkpt lat="49.51838" lon="0.62631">
        <ele>118.8601074</ele>
        <time>2014-09-14T12:33:54Z</time>
      </trkpt>
      <trkpt lat="49.51843" lon="0.62639">
        <ele>120.302124</ele>
        <time>2014-09-14T12:34:00Z</time>
      </trkpt>
      <trkpt lat="49.51851" lon="0.6265">
        <ele>122.7054443</ele>
        <time>2014-09-14T12:34:10Z</time>
      </trkpt>
      <trkpt lat="49.5186" lon="0.62665">
        <ele>124.6280518</ele>
        <time>2014-09-14T12:34:22Z</time>
      </trkpt>
      <trkpt lat="49.51866" lon="0.6268">
        <ele>125.5893555</ele>
        <time>2014-09-14T12:34:33Z</time>
      </trkpt>
      <trkpt lat="49.51875" lon="0.62697">
        <ele>125.1087646</ele>
        <time>2014-09-14T12:34:45Z</time>
      </trkpt>
      <trkpt lat="49.51884" lon="0.62714">
        <ele>124.6280518</ele>
        <time>2014-09-14T12:34:58Z</time>
      </trkpt>
      <trkpt lat="49.51894" lon="0.62736">
        <ele>123.666748</ele>
        <time>2014-09-14T12:35:13Z</time>
      </trkpt>
      <trkpt lat="49.51903" lon="0.62755">
        <ele>122.7054443</ele>
        <time>2014-09-14T12:35:28Z</time>
      </trkpt>
      <trkpt lat="49.51905" lon="0.62764">
        <ele>121.7441406</ele>
        <time>2014-09-14T12:35:39Z</time>
      </trkpt>
      <trkpt lat="49.51909" lon="0.62772">
        <ele>120.7828369</ele>
        <time>2014-09-14T12:35:47Z</time>
      </trkpt>
      <trkpt lat="49.51918" lon="0.62789">
        <ele>118.3793945</ele>
        <time>2014-09-14T12:36:00Z</time>
      </trkpt>
      <trkpt lat="49.51924" lon="0.62804">
        <ele>117.8988037</ele>
        <time>2014-09-14T12:36:12Z</time>
      </trkpt>
      <trkpt lat="49.51931" lon="0.62819">
        <ele>116.4567871</ele>
        <time>2014-09-14T12:36:23Z</time>
      </trkpt>
      <trkpt lat="49.51937" lon="0.62841">
        <ele>115.0148926</ele>
        <time>2014-09-14T12:36:37Z</time>
      </trkpt>
      <trkpt lat="49.51941" lon="0.62856">
        <ele>114.5341797</ele>
        <time>2014-09-14T12:36:48Z</time>
      </trkpt>
      <trkpt lat="49.51941" lon="0.62862">
        <ele>114.0535889</ele>
        <time>2014-09-14T12:36:57Z</time>
      </trkpt>
      <trkpt lat="49.51939" lon="0.62867">
        <ele>113.572998</ele>
        <time>2014-09-14T12:37:30Z</time>
      </trkpt>
      <trkpt lat="49.51939" lon="0.62869">
        <ele>113.0922852</ele>
        <time>2014-09-14T12:44:57Z</time>
      </trkpt>
      <trkpt lat="49.51939" lon="0.62869">
        <ele>112.6115723</ele>
        <time>2014-09-14T12:46:29Z</time>
      </trkpt>
      <trkpt lat="49.51937" lon="0.62871">
        <ele>113.0922852</ele>
        <time>2014-09-14T12:46:46Z</time>
      </trkpt>
      <trkpt lat="49.51939" lon="0.62871">
        <ele>114.0535889</ele>
        <time>2014-09-14T12:46:53Z</time>
      </trkpt>
      <trkpt lat="49.51941" lon="0.6288">
        <ele>112.6115723</ele>
        <time>2014-09-14T12:47:14Z</time>
      </trkpt>
      <trkpt lat="49.51939" lon="0.62884">
        <ele>111.1695557</ele>
        <time>2014-09-14T12:47:17Z</time>
      </trkpt>
      <trkpt lat="49.51939" lon="0.62895">
        <ele>109.7276611</ele>
        <time>2014-09-14T12:47:25Z</time>
      </trkpt>
      <trkpt lat="49.51939" lon="0.62903">
        <ele>108.7662354</ele>
        <time>2014-09-14T12:47:32Z</time>
      </trkpt>
      <trkpt lat="49.51937" lon="0.62912">
        <ele>107.3243408</ele>
        <time>2014-09-14T12:47:39Z</time>
      </trkpt>
      <trkpt lat="49.51935" lon="0.62922">
        <ele>106.3630371</ele>
        <time>2014-09-14T12:47:47Z</time>
      </trkpt>
      <trkpt lat="49.51935" lon="0.62927">
        <ele>106.3630371</ele>
        <time>2014-09-14T12:47:49Z</time>
      </trkpt>
      <trkpt lat="49.51935" lon="0.62935">
        <ele>106.8436279</ele>
        <time>2014-09-14T12:47:56Z</time>
      </trkpt>
      <trkpt lat="49.51937" lon="0.6295">
        <ele>106.8436279</ele>
        <time>2014-09-14T12:48:06Z</time>
      </trkpt>
      <trkpt lat="49.51937" lon="0.62963">
        <ele>104.9210205</ele>
        <time>2014-09-14T12:48:14Z</time>
      </trkpt>
      <trkpt lat="49.51937" lon="0.62972">
        <ele>105.4017334</ele>
        <time>2014-09-14T12:48:19Z</time>
      </trkpt>
      <trkpt lat="49.51939" lon="0.62987">
        <ele>107.8050537</ele>
        <time>2014-09-14T12:48:28Z</time>
      </trkpt>
      <trkpt lat="49.51944" lon="0.63002">
        <ele>109.7276611</ele>
        <time>2014-09-14T12:48:36Z</time>
      </trkpt>
      <trkpt lat="49.51946" lon="0.6301">
        <ele>111.6502686</ele>
        <time>2014-09-14T12:48:41Z</time>
      </trkpt>
      <trkpt lat="49.51948" lon="0.63013">
        <ele>112.1309814</ele>
        <time>2014-09-14T12:48:43Z</time>
      </trkpt>
      <trkpt lat="49.5195" lon="0.63021">
        <ele>112.1309814</ele>
        <time>2014-09-14T12:48:49Z</time>
      </trkpt>
      <trkpt lat="49.51952" lon="0.6303">
        <ele>114.5341797</ele>
        <time>2014-09-14T12:48:54Z</time>
      </trkpt>
      <trkpt lat="49.51952" lon="0.63038">
        <ele>117.8988037</ele>
        <time>2014-09-14T12:49:00Z</time>
      </trkpt>
      <trkpt lat="49.51954" lon="0.63045">
        <ele>118.8601074</ele>
        <time>2014-09-14T12:49:03Z</time>
      </trkpt>
      <trkpt lat="49.51957" lon="0.63049">
        <ele>120.302124</ele>
        <time>2014-09-14T12:49:07Z</time>
      </trkpt>
      <trkpt lat="49.51961" lon="0.63066">
        <ele>121.7441406</ele>
        <time>2014-09-14T12:49:17Z</time>
      </trkpt>
      <trkpt lat="49.51963" lon="0.63073">
        <ele>122.7054443</ele>
        <time>2014-09-14T12:49:21Z</time>
      </trkpt>
      <trkpt lat="49.51969" lon="0.63083">
        <ele>125.5893555</ele>
        <time>2014-09-14T12:49:28Z</time>
      </trkpt>
      <trkpt lat="49.51972" lon="0.6309">
        <ele>127.5119629</ele>
        <time>2014-09-14T12:49:33Z</time>
      </trkpt>
      <trkpt lat="49.51974" lon="0.63098">
        <ele>129.9152832</ele>
        <time>2014-09-14T12:49:37Z</time>
      </trkpt>
      <trkpt lat="49.51978" lon="0.63111">
        <ele>132.3186035</ele>
        <time>2014-09-14T12:49:45Z</time>
      </trkpt>
      <trkpt lat="49.51984" lon="0.63124">
        <ele>131.8378906</ele>
        <time>2014-09-14T12:49:54Z</time>
      </trkpt>
      <trkpt lat="49.51987" lon="0.63128">
        <ele>132.3186035</ele>
        <time>2014-09-14T12:49:57Z</time>
      </trkpt>
      <trkpt lat="49.51987" lon="0.63133">
        <ele>132.3186035</ele>
        <time>2014-09-14T12:50:04Z</time>
      </trkpt>
      <trkpt lat="49.51987" lon="0.63135">
        <ele>132.3186035</ele>
        <time>2014-09-14T12:50:06Z</time>
      </trkpt>
      <trkpt lat="49.51991" lon="0.63139">
        <ele>131.8378906</ele>
        <time>2014-09-14T12:50:10Z</time>
      </trkpt>
      <trkpt lat="49.51995" lon="0.6315">
        <ele>132.3186035</ele>
        <time>2014-09-14T12:50:17Z</time>
      </trkpt>
      <trkpt lat="49.51997" lon="0.63159">
        <ele>131.8378906</ele>
        <time>2014-09-14T12:50:23Z</time>
      </trkpt>
      <trkpt lat="49.51999" lon="0.63159">
        <ele>131.8378906</ele>
        <time>2014-09-14T12:50:24Z</time>
      </trkpt>
      <trkpt lat="49.52002" lon="0.63165">
        <ele>131.8378906</ele>
        <time>2014-09-14T12:50:27Z</time>
      </trkpt>
      <trkpt lat="49.52004" lon="0.63171">
        <ele>130.876709</ele>
        <time>2014-09-14T12:50:32Z</time>
      </trkpt>
      <trkpt lat="49.52008" lon="0.63186">
        <ele>130.3959961</ele>
        <time>2014-09-14T12:50:42Z</time>
      </trkpt>
      <trkpt lat="49.52012" lon="0.63197">
        <ele>131.8378906</ele>
        <time>2014-09-14T12:50:50Z</time>
      </trkpt>
      <trkpt lat="49.52014" lon="0.63206">
        <ele>134.2412109</ele>
        <time>2014-09-14T12:51:02Z</time>
      </trkpt>
      <trkpt lat="49.52019" lon="0.63219">
        <ele>134.7219238</ele>
        <time>2014-09-14T12:51:11Z</time>
      </trkpt>
      <trkpt lat="49.52021" lon="0.63225">
        <ele>134.7219238</ele>
        <time>2014-09-14T12:51:17Z</time>
      </trkpt>
      <trkpt lat="49.52025" lon="0.63234">
        <ele>134.7219238</ele>
        <time>2014-09-14T12:51:23Z</time>
      </trkpt>
      <trkpt lat="49.52027" lon="0.63244">
        <ele>132.7993164</ele>
        <time>2014-09-14T12:51:32Z</time>
      </trkpt>
      <trkpt lat="49.52032" lon="0.63257">
        <ele>131.8378906</ele>
        <time>2014-09-14T12:51:41Z</time>
      </trkpt>
      <trkpt lat="49.52034" lon="0.63266">
        <ele>131.3572998</ele>
        <time>2014-09-14T12:51:46Z</time>
      </trkpt>
      <trkpt lat="49.52036" lon="0.63272">
        <ele>132.3186035</ele>
        <time>2014-09-14T12:51:53Z</time>
      </trkpt>
      <trkpt lat="49.5204" lon="0.63279">
        <ele>133.2799072</ele>
        <time>2014-09-14T12:51:57Z</time>
      </trkpt>
      <trkpt lat="49.52042" lon="0.63285">
        <ele>134.2412109</ele>
        <time>2014-09-14T12:52:01Z</time>
      </trkpt>
      <trkpt lat="49.52049" lon="0.633">
        <ele>132.7993164</ele>
        <time>2014-09-14T12:52:11Z</time>
      </trkpt>
      <trkpt lat="49.52049" lon="0.63302">
        <ele>133.2799072</ele>
        <time>2014-09-14T12:52:13Z</time>
      </trkpt>
      <trkpt lat="49.52055" lon="0.63315">
        <ele>133.2799072</ele>
        <time>2014-09-14T12:52:22Z</time>
      </trkpt>
      <trkpt lat="49.52062" lon="0.63328">
        <ele>133.2799072</ele>
        <time>2014-09-14T12:52:30Z</time>
      </trkpt>
      <trkpt lat="49.52066" lon="0.63343">
        <ele>132.7993164</ele>
        <time>2014-09-14T12:52:39Z</time>
      </trkpt>
      <trkpt lat="49.52072" lon="0.63352">
        <ele>134.2412109</ele>
        <time>2014-09-14T12:52:45Z</time>
      </trkpt>
      <trkpt lat="49.52075" lon="0.63358">
        <ele>133.760498</ele>
        <time>2014-09-14T12:52:49Z</time>
      </trkpt>
      <trkpt lat="49.52081" lon="0.63369">
        <ele>134.7219238</ele>
        <time>2014-09-14T12:52:56Z</time>
      </trkpt>
      <trkpt lat="49.52083" lon="0.63377">
        <ele>133.760498</ele>
        <time>2014-09-14T12:53:01Z</time>
      </trkpt>
      <trkpt lat="49.52087" lon="0.63386">
        <ele>133.2799072</ele>
        <time>2014-09-14T12:53:07Z</time>
      </trkpt>
      <trkpt lat="49.52092" lon="0.63392">
        <ele>134.2412109</ele>
        <time>2014-09-14T12:53:12Z</time>
      </trkpt>
      <trkpt lat="49.52092" lon="0.63395">
        <ele>134.2412109</ele>
        <time>2014-09-14T12:53:13Z</time>
      </trkpt>
      <trkpt lat="49.52098" lon="0.63407">
        <ele>134.2412109</ele>
        <time>2014-09-14T12:53:21Z</time>
      </trkpt>
      <trkpt lat="49.52105" lon="0.6342">
        <ele>134.2412109</ele>
        <time>2014-09-14T12:53:29Z</time>
      </trkpt>
      <trkpt lat="49.52109" lon="0.63429">
        <ele>134.7219238</ele>
        <time>2014-09-14T12:53:35Z</time>
      </trkpt>
      <trkpt lat="49.52115" lon="0.6344">
        <ele>135.2025146</ele>
        <time>2014-09-14T12:53:42Z</time>
      </trkpt>
      <trkpt lat="49.52117" lon="0.63446">
        <ele>135.2025146</ele>
        <time>2014-09-14T12:53:47Z</time>
      </trkpt>
      <trkpt lat="49.52124" lon="0.63457">
        <ele>135.6831055</ele>
        <time>2014-09-14T12:53:55Z</time>
      </trkpt>
      <trkpt lat="49.52132" lon="0.6347">
        <ele>135.2025146</ele>
        <time>2014-09-14T12:54:05Z</time>
      </trkpt>
      <trkpt lat="49.52135" lon="0.63476">
        <ele>135.6831055</ele>
        <time>2014-09-14T12:54:08Z</time>
      </trkpt>
      <trkpt lat="49.52137" lon="0.63478">
        <ele>135.6831055</ele>
        <time>2014-09-14T12:54:11Z</time>
      </trkpt>
      <trkpt lat="49.52139" lon="0.63485">
        <ele>135.6831055</ele>
        <time>2014-09-14T12:54:15Z</time>
      </trkpt>
      <trkpt lat="49.52143" lon="0.63491">
        <ele>135.2025146</ele>
        <time>2014-09-14T12:54:20Z</time>
      </trkpt>
      <trkpt lat="49.52147" lon="0.63498">
        <ele>136.1639404</ele>
        <time>2014-09-14T12:54:25Z</time>
      </trkpt>
      <trkpt lat="49.5215" lon="0.635">
        <ele>136.1639404</ele>
        <time>2014-09-14T12:54:27Z</time>
      </trkpt>
      <trkpt lat="49.52154" lon="0.63508">
        <ele>136.6446533</ele>
        <time>2014-09-14T12:54:33Z</time>
      </trkpt>
      <trkpt lat="49.5216" lon="0.63521">
        <ele>137.1252441</ele>
        <time>2014-09-14T12:54:41Z</time>
      </trkpt>
      <trkpt lat="49.52165" lon="0.63525">
        <ele>137.605835</ele>
        <time>2014-09-14T12:54:46Z</time>
      </trkpt>
      <trkpt lat="49.52171" lon="0.63534">
        <ele>138.0865479</ele>
        <time>2014-09-14T12:54:53Z</time>
      </trkpt>
      <trkpt lat="49.52175" lon="0.6354">
        <ele>139.0478516</ele>
        <time>2014-09-14T12:55:02Z</time>
      </trkpt>
      <trkpt lat="49.5218" lon="0.63545">
        <ele>139.0478516</ele>
        <time>2014-09-14T12:55:06Z</time>
      </trkpt>
      <trkpt lat="49.52182" lon="0.63549">
        <ele>139.5284424</ele>
        <time>2014-09-14T12:55:09Z</time>
      </trkpt>
      <trkpt lat="49.52188" lon="0.6356">
        <ele>139.0478516</ele>
        <time>2014-09-14T12:55:17Z</time>
      </trkpt>
      <trkpt lat="49.52193" lon="0.63568">
        <ele>139.5284424</ele>
        <time>2014-09-14T12:55:25Z</time>
      </trkpt>
      <trkpt lat="49.52195" lon="0.63573">
        <ele>139.5284424</ele>
        <time>2014-09-14T12:55:28Z</time>
      </trkpt>
      <trkpt lat="49.52199" lon="0.63579">
        <ele>140.0091553</ele>
        <time>2014-09-14T12:55:33Z</time>
      </trkpt>
      <trkpt lat="49.52205" lon="0.63592">
        <ele>141.4510498</ele>
        <time>2014-09-14T12:55:42Z</time>
      </trkpt>
      <trkpt lat="49.52212" lon="0.63603">
        <ele>141.4510498</ele>
        <time>2014-09-14T12:55:50Z</time>
      </trkpt>
      <trkpt lat="49.52216" lon="0.63609">
        <ele>140.4898682</ele>
        <time>2014-09-14T12:55:56Z</time>
      </trkpt>
      <trkpt lat="49.52218" lon="0.63616">
        <ele>139.5284424</ele>
        <time>2014-09-14T12:56:00Z</time>
      </trkpt>
      <trkpt lat="49.52223" lon="0.6362">
        <ele>139.0478516</ele>
        <time>2014-09-14T12:56:05Z</time>
      </trkpt>
      <trkpt lat="49.52225" lon="0.63626">
        <ele>140.0091553</ele>
        <time>2014-09-14T12:56:13Z</time>
      </trkpt>
      <trkpt lat="49.52231" lon="0.63637">
        <ele>140.0091553</ele>
        <time>2014-09-14T12:56:27Z</time>
      </trkpt>
      <trkpt lat="49.52233" lon="0.63639">
        <ele>140.0091553</ele>
        <time>2014-09-14T12:56:29Z</time>
      </trkpt>
      <trkpt lat="49.52235" lon="0.63648">
        <ele>139.5284424</ele>
        <time>2014-09-14T12:56:34Z</time>
      </trkpt>
      <trkpt lat="49.52238" lon="0.63652">
        <ele>139.5284424</ele>
        <time>2014-09-14T12:56:37Z</time>
      </trkpt>
      <trkpt lat="49.52235" lon="0.63658">
        <ele>140.0091553</ele>
        <time>2014-09-14T12:56:41Z</time>
      </trkpt>
      <trkpt lat="49.52227" lon="0.63669">
        <ele>139.5284424</ele>
        <time>2014-09-14T12:56:51Z</time>
      </trkpt>
      <trkpt lat="49.52218" lon="0.6368">
        <ele>137.605835</ele>
        <time>2014-09-14T12:57:00Z</time>
      </trkpt>
      <trkpt lat="49.52216" lon="0.63684">
        <ele>137.1252441</ele>
        <time>2014-09-14T12:57:04Z</time>
      </trkpt>
      <trkpt lat="49.5221" lon="0.63693">
        <ele>134.2412109</ele>
        <time>2014-09-14T12:57:13Z</time>
      </trkpt>
      <trkpt lat="49.52201" lon="0.63701">
        <ele>128.4733887</ele>
        <time>2014-09-14T12:57:22Z</time>
      </trkpt>
      <trkpt lat="49.52193" lon="0.6371">
        <ele>117.8988037</ele>
        <time>2014-09-14T12:57:32Z</time>
      </trkpt>
      <trkpt lat="49.52184" lon="0.63721">
        <ele>111.1695557</ele>
        <time>2014-09-14T12:57:41Z</time>
      </trkpt>
      <trkpt lat="49.5218" lon="0.63725">
        <ele>107.3243408</ele>
        <time>2014-09-14T12:57:52Z</time>
      </trkpt>
      <trkpt lat="49.52178" lon="0.63725">
        <ele>107.3243408</ele>
        <time>2014-09-14T12:57:53Z</time>
      </trkpt>
      <trkpt lat="49.52175" lon="0.63731">
        <ele>107.8050537</ele>
        <time>2014-09-14T12:57:57Z</time>
      </trkpt>
      <trkpt lat="49.52171" lon="0.63742">
        <ele>111.1695557</ele>
        <time>2014-09-14T12:58:05Z</time>
      </trkpt>
      <trkpt lat="49.52167" lon="0.63749">
        <ele>114.0535889</ele>
        <time>2014-09-14T12:58:09Z</time>
      </trkpt>
      <trkpt lat="49.52163" lon="0.63757">
        <ele>118.3793945</ele>
        <time>2014-09-14T12:58:15Z</time>
      </trkpt>
      <trkpt lat="49.52158" lon="0.63764">
        <ele>122.2247314</ele>
        <time>2014-09-14T12:58:20Z</time>
      </trkpt>
      <trkpt lat="49.52147" lon="0.63776">
        <ele>127.5119629</ele>
        <time>2014-09-14T12:58:30Z</time>
      </trkpt>
      <trkpt lat="49.52145" lon="0.63781">
        <ele>127.9925537</ele>
        <time>2014-09-14T12:58:33Z</time>
      </trkpt>
      <trkpt lat="49.52137" lon="0.63794">
        <ele>127.5119629</ele>
        <time>2014-09-14T12:58:43Z</time>
      </trkpt>
      <trkpt lat="49.52128" lon="0.63802">
        <ele>126.5506592</ele>
        <time>2014-09-14T12:58:54Z</time>
      </trkpt>
      <trkpt lat="49.52122" lon="0.63813">
        <ele>125.1087646</ele>
        <time>2014-09-14T12:59:02Z</time>
      </trkpt>
      <trkpt lat="49.52115" lon="0.63819">
        <ele>124.1473389</ele>
        <time>2014-09-14T12:59:09Z</time>
      </trkpt>
      <trkpt lat="49.52111" lon="0.63828">
        <ele>121.7441406</ele>
        <time>2014-09-14T12:59:18Z</time>
      </trkpt>
      <trkpt lat="49.52102" lon="0.63839">
        <ele>121.2635498</ele>
        <time>2014-09-14T12:59:27Z</time>
      </trkpt>
      <trkpt lat="49.521" lon="0.63841">
        <ele>121.2635498</ele>
        <time>2014-09-14T12:59:29Z</time>
      </trkpt>
      <trkpt lat="49.52092" lon="0.63852">
        <ele>122.7054443</ele>
        <time>2014-09-14T12:59:38Z</time>
      </trkpt>
      <trkpt lat="49.52083" lon="0.63856">
        <ele>122.7054443</ele>
        <time>2014-09-14T12:59:47Z</time>
      </trkpt>
      <trkpt lat="49.52081" lon="0.63862">
        <ele>122.7054443</ele>
        <time>2014-09-14T12:59:51Z</time>
      </trkpt>
      <trkpt lat="49.5207" lon="0.63867">
        <ele>122.2247314</ele>
        <time>2014-09-14T13:00:00Z</time>
      </trkpt>
      <trkpt lat="49.5206" lon="0.63873">
        <ele>122.2247314</ele>
        <time>2014-09-14T13:00:10Z</time>
      </trkpt>
      <trkpt lat="49.52051" lon="0.63877">
        <ele>121.7441406</ele>
        <time>2014-09-14T13:00:17Z</time>
      </trkpt>
      <trkpt lat="49.52044" lon="0.63886">
        <ele>122.7054443</ele>
        <time>2014-09-14T13:00:26Z</time>
      </trkpt>
      <trkpt lat="49.52038" lon="0.63892">
        <ele>122.7054443</ele>
        <time>2014-09-14T13:00:35Z</time>
      </trkpt>
      <trkpt lat="49.52036" lon="0.63892">
        <ele>122.7054443</ele>
        <time>2014-09-14T13:00:47Z</time>
      </trkpt>
      <trkpt lat="49.52032" lon="0.63897">
        <ele>122.2247314</ele>
        <time>2014-09-14T13:00:57Z</time>
      </trkpt>
      <trkpt lat="49.52027" lon="0.63907">
        <ele>122.2247314</ele>
        <time>2014-09-14T13:01:06Z</time>
      </trkpt>
      <trkpt lat="49.52023" lon="0.63912">
        <ele>122.2247314</ele>
        <time>2014-09-14T13:01:10Z</time>
      </trkpt>
      <trkpt lat="49.52019" lon="0.63922">
        <ele>122.2247314</ele>
        <time>2014-09-14T13:01:18Z</time>
      </trkpt>
      <trkpt lat="49.52017" lon="0.63929">
        <ele>122.2247314</ele>
        <time>2014-09-14T13:01:22Z</time>
      </trkpt>
      <trkpt lat="49.52014" lon="0.63933">
        <ele>122.2247314</ele>
        <time>2014-09-14T13:01:25Z</time>
      </trkpt>
      <trkpt lat="49.52012" lon="0.63937">
        <ele>122.2247314</ele>
        <time>2014-09-14T13:01:29Z</time>
      </trkpt>
      <trkpt lat="49.5201" lon="0.63946">
        <ele>123.1861572</ele>
        <time>2014-09-14T13:01:34Z</time>
      </trkpt>
      <trkpt lat="49.52004" lon="0.63957">
        <ele>122.7054443</ele>
        <time>2014-09-14T13:01:43Z</time>
      </trkpt>
      <trkpt lat="49.51999" lon="0.63967">
        <ele>120.7828369</ele>
        <time>2014-09-14T13:01:49Z</time>
      </trkpt>
      <trkpt lat="49.51993" lon="0.63982">
        <ele>121.7441406</ele>
        <time>2014-09-14T13:01:58Z</time>
      </trkpt>
      <trkpt lat="49.51987" lon="0.64">
        <ele>124.6280518</ele>
        <time>2014-09-14T13:02:08Z</time>
      </trkpt>
      <trkpt lat="49.51978" lon="0.64013">
        <ele>127.0313721</ele>
        <time>2014-09-14T13:02:17Z</time>
      </trkpt>
      <trkpt lat="49.51972" lon="0.64025">
        <ele>127.5119629</ele>
        <time>2014-09-14T13:02:26Z</time>
      </trkpt>
      <trkpt lat="49.51972" lon="0.64032">
        <ele>127.5119629</ele>
        <time>2014-09-14T13:02:30Z</time>
      </trkpt>
      <trkpt lat="49.51963" lon="0.64045">
        <ele>127.9925537</ele>
        <time>2014-09-14T13:02:39Z</time>
      </trkpt>
      <trkpt lat="49.51959" lon="0.64058">
        <ele>127.9925537</ele>
        <time>2014-09-14T13:02:47Z</time>
      </trkpt>
      <trkpt lat="49.51954" lon="0.6407">
        <ele>128.4733887</ele>
        <time>2014-09-14T13:02:55Z</time>
      </trkpt>
      <trkpt lat="49.51946" lon="0.64085">
        <ele>128.4733887</ele>
        <time>2014-09-14T13:03:06Z</time>
      </trkpt>
      <trkpt lat="49.51944" lon="0.6409">
        <ele>128.9541016</ele>
        <time>2014-09-14T13:03:09Z</time>
      </trkpt>
      <trkpt lat="49.51933" lon="0.64109">
        <ele>128.4733887</ele>
        <time>2014-09-14T13:03:21Z</time>
      </trkpt>
      <trkpt lat="49.51926" lon="0.64122">
        <ele>128.9541016</ele>
        <time>2014-09-14T13:03:30Z</time>
      </trkpt>
      <trkpt lat="49.51924" lon="0.64131">
        <ele>127.9925537</ele>
        <time>2014-09-14T13:03:35Z</time>
      </trkpt>
      <trkpt lat="49.51922" lon="0.64137">
        <ele>127.5119629</ele>
        <time>2014-09-14T13:03:39Z</time>
      </trkpt>
      <trkpt lat="49.51918" lon="0.64141">
        <ele>127.5119629</ele>
        <time>2014-09-14T13:03:42Z</time>
      </trkpt>
      <trkpt lat="49.51914" lon="0.64152">
        <ele>126.5506592</ele>
        <time>2014-09-14T13:03:50Z</time>
      </trkpt>
      <trkpt lat="49.51914" lon="0.64154">
        <ele>126.5506592</ele>
        <time>2014-09-14T13:03:51Z</time>
      </trkpt>
      <trkpt lat="49.51907" lon="0.64161">
        <ele>126.0699463</ele>
        <time>2014-09-14T13:03:56Z</time>
      </trkpt>
      <trkpt lat="49.51907" lon="0.64165">
        <ele>125.5893555</ele>
        <time>2014-09-14T13:03:59Z</time>
      </trkpt>
      <trkpt lat="49.51901" lon="0.64176">
        <ele>124.6280518</ele>
        <time>2014-09-14T13:04:07Z</time>
      </trkpt>
      <trkpt lat="49.51894" lon="0.64188">
        <ele>125.5893555</ele>
        <time>2014-09-14T13:04:16Z</time>
      </trkpt>
      <trkpt lat="49.51892" lon="0.64193">
        <ele>125.5893555</ele>
        <time>2014-09-14T13:04:18Z</time>
      </trkpt>
      <trkpt lat="49.51886" lon="0.64208">
        <ele>125.5893555</ele>
        <time>2014-09-14T13:04:28Z</time>
      </trkpt>
      <trkpt lat="49.51884" lon="0.64212">
        <ele>125.5893555</ele>
        <time>2014-09-14T13:04:31Z</time>
      </trkpt>
      <trkpt lat="49.51879" lon="0.64221">
        <ele>125.1087646</ele>
        <time>2014-09-14T13:04:38Z</time>
      </trkpt>
      <trkpt lat="49.51875" lon="0.64229">
        <ele>126.0699463</ele>
        <time>2014-09-14T13:04:43Z</time>
      </trkpt>
      <trkpt lat="49.51871" lon="0.64238">
        <ele>127.0313721</ele>
        <time>2014-09-14T13:04:48Z</time>
      </trkpt>
      <trkpt lat="49.51862" lon="0.64253">
        <ele>126.0699463</ele>
        <time>2014-09-14T13:04:59Z</time>
      </trkpt>
      <trkpt lat="49.51862" lon="0.64255">
        <ele>126.0699463</ele>
        <time>2014-09-14T13:05:00Z</time>
      </trkpt>
      <trkpt lat="49.5186" lon="0.64264">
        <ele>126.0699463</ele>
        <time>2014-09-14T13:05:05Z</time>
      </trkpt>
      <trkpt lat="49.51858" lon="0.64266">
        <ele>126.0699463</ele>
        <time>2014-09-14T13:05:07Z</time>
      </trkpt>
      <trkpt lat="49.51851" lon="0.64276">
        <ele>125.1087646</ele>
        <time>2014-09-14T13:05:15Z</time>
      </trkpt>
      <trkpt lat="49.51845" lon="0.64289">
        <ele>124.6280518</ele>
        <time>2014-09-14T13:05:24Z</time>
      </trkpt>
      <trkpt lat="49.51838" lon="0.64302">
        <ele>123.1861572</ele>
        <time>2014-09-14T13:05:32Z</time>
      </trkpt>
      <trkpt lat="49.51836" lon="0.64315">
        <ele>124.1473389</ele>
        <time>2014-09-14T13:05:39Z</time>
      </trkpt>
      <trkpt lat="49.51832" lon="0.64319">
        <ele>124.6280518</ele>
        <time>2014-09-14T13:05:42Z</time>
      </trkpt>
      <trkpt lat="49.5183" lon="0.64326">
        <ele>124.1473389</ele>
        <time>2014-09-14T13:05:47Z</time>
      </trkpt>
      <trkpt lat="49.5183" lon="0.6433">
        <ele>124.1473389</ele>
        <time>2014-09-14T13:05:49Z</time>
      </trkpt>
      <trkpt lat="49.51823" lon="0.64341">
        <ele>125.1087646</ele>
        <time>2014-09-14T13:05:57Z</time>
      </trkpt>
      <trkpt lat="49.51819" lon="0.64352">
        <ele>126.0699463</ele>
        <time>2014-09-14T13:06:04Z</time>
      </trkpt>
      <trkpt lat="49.51813" lon="0.64364">
        <ele>126.0699463</ele>
        <time>2014-09-14T13:06:14Z</time>
      </trkpt>
      <trkpt lat="49.51811" lon="0.64367">
        <ele>126.5506592</ele>
        <time>2014-09-14T13:06:15Z</time>
      </trkpt>
      <trkpt lat="49.51804" lon="0.64375">
        <ele>126.0699463</ele>
        <time>2014-09-14T13:06:24Z</time>
      </trkpt>
      <trkpt lat="49.51806" lon="0.64375">
        <ele>126.5506592</ele>
        <time>2014-09-14T13:06:42Z</time>
      </trkpt>
      <trkpt lat="49.51804" lon="0.64382">
        <ele>126.5506592</ele>
        <time>2014-09-14T13:07:11Z</time>
      </trkpt>
      <trkpt lat="49.518" lon="0.64392">
        <ele>126.5506592</ele>
        <time>2014-09-14T13:07:21Z</time>
      </trkpt>
      <trkpt lat="49.51796" lon="0.64399">
        <ele>126.5506592</ele>
        <time>2014-09-14T13:07:48Z</time>
      </trkpt>
      <trkpt lat="49.51789" lon="0.64412">
        <ele>126.5506592</ele>
        <time>2014-09-14T13:07:57Z</time>
      </trkpt>
      <trkpt lat="49.51787" lon="0.64416">
        <ele>126.5506592</ele>
        <time>2014-09-14T13:07:59Z</time>
      </trkpt>
      <trkpt lat="49.51787" lon="0.64418">
        <ele>126.0699463</ele>
        <time>2014-09-14T13:08:01Z</time>
      </trkpt>
      <trkpt lat="49.51783" lon="0.64427">
        <ele>126.0699463</ele>
        <time>2014-09-14T13:08:06Z</time>
      </trkpt>
      <trkpt lat="49.51776" lon="0.6444">
        <ele>127.0313721</ele>
        <time>2014-09-14T13:08:15Z</time>
      </trkpt>
      <trkpt lat="49.51772" lon="0.64444">
        <ele>127.0313721</ele>
        <time>2014-09-14T13:08:18Z</time>
      </trkpt>
      <trkpt lat="49.51766" lon="0.64457">
        <ele>127.5119629</ele>
        <time>2014-09-14T13:08:27Z</time>
      </trkpt>
      <trkpt lat="49.51763" lon="0.64461">
        <ele>127.0313721</ele>
        <time>2014-09-14T13:08:31Z</time>
      </trkpt>
      <trkpt lat="49.51761" lon="0.64465">
        <ele>127.0313721</ele>
        <time>2014-09-14T13:08:33Z</time>
      </trkpt>
      <trkpt lat="49.51755" lon="0.64476">
        <ele>127.5119629</ele>
        <time>2014-09-14T13:08:41Z</time>
      </trkpt>
      <trkpt lat="49.51748" lon="0.64489">
        <ele>126.0699463</ele>
        <time>2014-09-14T13:08:50Z</time>
      </trkpt>
      <trkpt lat="49.51742" lon="0.645">
        <ele>124.6280518</ele>
        <time>2014-09-14T13:08:59Z</time>
      </trkpt>
      <trkpt lat="49.51742" lon="0.64502">
        <ele>124.6280518</ele>
        <time>2014-09-14T13:09:01Z</time>
      </trkpt>
      <trkpt lat="49.51738" lon="0.64508">
        <ele>124.6280518</ele>
        <time>2014-09-14T13:09:05Z</time>
      </trkpt>
      <trkpt lat="49.51733" lon="0.64517">
        <ele>124.1473389</ele>
        <time>2014-09-14T13:09:11Z</time>
      </trkpt>
      <trkpt lat="49.51731" lon="0.64519">
        <ele>124.1473389</ele>
        <time>2014-09-14T13:09:14Z</time>
      </trkpt>
      <trkpt lat="49.51723" lon="0.64534">
        <ele>124.1473389</ele>
        <time>2014-09-14T13:09:24Z</time>
      </trkpt>
      <trkpt lat="49.5172" lon="0.64538">
        <ele>124.1473389</ele>
        <time>2014-09-14T13:09:28Z</time>
      </trkpt>
      <trkpt lat="49.51714" lon="0.64549">
        <ele>123.666748</ele>
        <time>2014-09-14T13:09:36Z</time>
      </trkpt>
      <trkpt lat="49.5171" lon="0.64558">
        <ele>123.1861572</ele>
        <time>2014-09-14T13:09:41Z</time>
      </trkpt>
      <trkpt lat="49.51705" lon="0.64566">
        <ele>123.1861572</ele>
        <time>2014-09-14T13:09:48Z</time>
      </trkpt>
      <trkpt lat="49.51699" lon="0.64575">
        <ele>123.1861572</ele>
        <time>2014-09-14T13:09:55Z</time>
      </trkpt>
      <trkpt lat="49.51695" lon="0.64583">
        <ele>122.7054443</ele>
        <time>2014-09-14T13:10:03Z</time>
      </trkpt>
      <trkpt lat="49.5169" lon="0.64588">
        <ele>122.7054443</ele>
        <time>2014-09-14T13:10:13Z</time>
      </trkpt>
      <trkpt lat="49.5169" lon="0.6459">
        <ele>122.7054443</ele>
        <time>2014-09-14T13:10:17Z</time>
      </trkpt>
      <trkpt lat="49.51684" lon="0.64605">
        <ele>122.7054443</ele>
        <time>2014-09-14T13:10:28Z</time>
      </trkpt>
      <trkpt lat="49.51682" lon="0.64609">
        <ele>122.7054443</ele>
        <time>2014-09-14T13:10:30Z</time>
      </trkpt>
      <trkpt lat="49.51675" lon="0.64622">
        <ele>122.7054443</ele>
        <time>2014-09-14T13:10:39Z</time>
      </trkpt>
      <trkpt lat="49.51667" lon="0.64635">
        <ele>122.7054443</ele>
        <time>2014-09-14T13:10:50Z</time>
      </trkpt>
      <trkpt lat="49.5166" lon="0.6465">
        <ele>123.1861572</ele>
        <time>2014-09-14T13:11:01Z</time>
      </trkpt>
      <trkpt lat="49.51652" lon="0.64663">
        <ele>122.7054443</ele>
        <time>2014-09-14T13:11:10Z</time>
      </trkpt>
      <trkpt lat="49.51652" lon="0.64665">
        <ele>123.1861572</ele>
        <time>2014-09-14T13:11:12Z</time>
      </trkpt>
      <trkpt lat="49.51645" lon="0.64676">
        <ele>124.1473389</ele>
        <time>2014-09-14T13:11:22Z</time>
      </trkpt>
      <trkpt lat="49.51641" lon="0.6468">
        <ele>123.666748</ele>
        <time>2014-09-14T13:11:25Z</time>
      </trkpt>
      <trkpt lat="49.51637" lon="0.64688">
        <ele>121.7441406</ele>
        <time>2014-09-14T13:11:32Z</time>
      </trkpt>
      <trkpt lat="49.51633" lon="0.64697">
        <ele>121.2635498</ele>
        <time>2014-09-14T13:11:40Z</time>
      </trkpt>
      <trkpt lat="49.51626" lon="0.6471">
        <ele>120.302124</ele>
        <time>2014-09-14T13:11:50Z</time>
      </trkpt>
      <trkpt lat="49.5162" lon="0.64723">
        <ele>120.7828369</ele>
        <time>2014-09-14T13:11:59Z</time>
      </trkpt>
      <trkpt lat="49.51617" lon="0.64727">
        <ele>121.2635498</ele>
        <time>2014-09-14T13:12:03Z</time>
      </trkpt>
      <trkpt lat="49.51611" lon="0.64742">
        <ele>121.7441406</ele>
        <time>2014-09-14T13:12:14Z</time>
      </trkpt>
      <trkpt lat="49.51605" lon="0.64757">
        <ele>122.2247314</ele>
        <time>2014-09-14T13:12:24Z</time>
      </trkpt>
      <trkpt lat="49.516" lon="0.64764">
        <ele>122.7054443</ele>
        <time>2014-09-14T13:12:29Z</time>
      </trkpt>
      <trkpt lat="49.51598" lon="0.64768">
        <ele>123.1861572</ele>
        <time>2014-09-14T13:12:33Z</time>
      </trkpt>
      <trkpt lat="49.51594" lon="0.64776">
        <ele>123.1861572</ele>
        <time>2014-09-14T13:12:38Z</time>
      </trkpt>
      <trkpt lat="49.51587" lon="0.64791">
        <ele>122.7054443</ele>
        <time>2014-09-14T13:12:49Z</time>
      </trkpt>
      <trkpt lat="49.51585" lon="0.64796">
        <ele>122.7054443</ele>
        <time>2014-09-14T13:12:52Z</time>
      </trkpt>
      <trkpt lat="49.51577" lon="0.64813">
        <ele>123.1861572</ele>
        <time>2014-09-14T13:13:04Z</time>
      </trkpt>
      <trkpt lat="49.5157" lon="0.64828">
        <ele>121.2635498</ele>
        <time>2014-09-14T13:13:16Z</time>
      </trkpt>
      <trkpt lat="49.51564" lon="0.64837">
        <ele>118.8601074</ele>
        <time>2014-09-14T13:13:25Z</time>
      </trkpt>
      <trkpt lat="49.51557" lon="0.64849">
        <ele>117.8988037</ele>
        <time>2014-09-14T13:13:35Z</time>
      </trkpt>
      <trkpt lat="49.51551" lon="0.64858">
        <ele>118.8601074</ele>
        <time>2014-09-14T13:13:43Z</time>
      </trkpt>
      <trkpt lat="49.51547" lon="0.64867">
        <ele>119.3408203</ele>
        <time>2014-09-14T13:13:51Z</time>
      </trkpt>
      <trkpt lat="49.51542" lon="0.64875">
        <ele>119.8214111</ele>
        <time>2014-09-14T13:13:59Z</time>
      </trkpt>
      <trkpt lat="49.51536" lon="0.64882">
        <ele>119.3408203</ele>
        <time>2014-09-14T13:14:04Z</time>
      </trkpt>
      <trkpt lat="49.51534" lon="0.6489">
        <ele>119.8214111</ele>
        <time>2014-09-14T13:14:09Z</time>
      </trkpt>
      <trkpt lat="49.51534" lon="0.64901">
        <ele>119.8214111</ele>
        <time>2014-09-14T13:14:14Z</time>
      </trkpt>
      <trkpt lat="49.51536" lon="0.64909">
        <ele>120.302124</ele>
        <time>2014-09-14T13:14:23Z</time>
      </trkpt>
      <trkpt lat="49.51534" lon="0.64909">
        <ele>120.302124</ele>
        <time>2014-09-14T13:14:38Z</time>
      </trkpt>
      <trkpt lat="49.51527" lon="0.64905">
        <ele>119.8214111</ele>
        <time>2014-09-14T13:15:23Z</time>
      </trkpt>
      <trkpt lat="49.51525" lon="0.64905">
        <ele>119.3408203</ele>
        <time>2014-09-14T13:15:26Z</time>
      </trkpt>
      <trkpt lat="49.51514" lon="0.64909">
        <ele>115.4956055</ele>
        <time>2014-09-14T13:15:36Z</time>
      </trkpt>
      <trkpt lat="49.51506" lon="0.64914">
        <ele>113.0922852</ele>
        <time>2014-09-14T13:15:43Z</time>
      </trkpt>
      <trkpt lat="49.51502" lon="0.64916">
        <ele>111.6502686</ele>
        <time>2014-09-14T13:15:48Z</time>
      </trkpt>
      <trkpt lat="49.51489" lon="0.64924">
        <ele>110.208252</ele>
        <time>2014-09-14T13:16:00Z</time>
      </trkpt>
      <trkpt lat="49.51476" lon="0.64929">
        <ele>111.6502686</ele>
        <time>2014-09-14T13:16:11Z</time>
      </trkpt>
      <trkpt lat="49.51467" lon="0.64931">
        <ele>111.6502686</ele>
        <time>2014-09-14T13:16:20Z</time>
      </trkpt>
      <trkpt lat="49.51457" lon="0.64935">
        <ele>110.208252</ele>
        <time>2014-09-14T13:16:31Z</time>
      </trkpt>
      <trkpt lat="49.51448" lon="0.64942">
        <ele>109.7276611</ele>
        <time>2014-09-14T13:16:42Z</time>
      </trkpt>
      <trkpt lat="49.51439" lon="0.64946">
        <ele>108.7662354</ele>
        <time>2014-09-14T13:16:51Z</time>
      </trkpt>
      <trkpt lat="49.51431" lon="0.64955">
        <ele>107.3243408</ele>
        <time>2014-09-14T13:17:00Z</time>
      </trkpt>
      <trkpt lat="49.51427" lon="0.64959">
        <ele>106.3630371</ele>
        <time>2014-09-14T13:17:04Z</time>
      </trkpt>
      <trkpt lat="49.51418" lon="0.64965">
        <ele>105.8824463</ele>
        <time>2014-09-14T13:17:13Z</time>
      </trkpt>
      <trkpt lat="49.51411" lon="0.64976">
        <ele>104.9210205</ele>
        <time>2014-09-14T13:17:23Z</time>
      </trkpt>
      <trkpt lat="49.51401" lon="0.64985">
        <ele>104.4404297</ele>
        <time>2014-09-14T13:17:34Z</time>
      </trkpt>
      <trkpt lat="49.51396" lon="0.64993">
        <ele>103.4790039</ele>
        <time>2014-09-14T13:17:42Z</time>
      </trkpt>
      <trkpt lat="49.51392" lon="0.65002">
        <ele>102.998291</ele>
        <time>2014-09-14T13:17:52Z</time>
      </trkpt>
      <trkpt lat="49.5139" lon="0.65002">
        <ele>102.5177002</ele>
        <time>2014-09-14T13:17:53Z</time>
      </trkpt>
      <trkpt lat="49.51384" lon="0.65012">
        <ele>102.0371094</ele>
        <time>2014-09-14T13:18:03Z</time>
      </trkpt>
      <trkpt lat="49.51364" lon="0.65043">
        <ele>101.0756836</ele>
        <time>2014-09-14T13:18:43Z</time>
      </trkpt>
      <trkpt lat="49.5136" lon="0.65053">
        <ele>102.0371094</ele>
        <time>2014-09-14T13:18:51Z</time>
      </trkpt>
      <trkpt lat="49.51356" lon="0.65066">
        <ele>103.4790039</ele>
        <time>2014-09-14T13:19:00Z</time>
      </trkpt>
      <trkpt lat="49.51349" lon="0.65077">
        <ele>103.9597168</ele>
        <time>2014-09-14T13:19:09Z</time>
      </trkpt>
      <trkpt lat="49.51341" lon="0.65096">
        <ele>105.8824463</ele>
        <time>2014-09-14T13:19:22Z</time>
      </trkpt>
      <trkpt lat="49.51334" lon="0.65109">
        <ele>106.8436279</ele>
        <time>2014-09-14T13:19:33Z</time>
      </trkpt>
      <trkpt lat="49.5133" lon="0.65118">
        <ele>107.3243408</ele>
        <time>2014-09-14T13:19:41Z</time>
      </trkpt>
      <trkpt lat="49.51326" lon="0.6513">
        <ele>107.8050537</ele>
        <time>2014-09-14T13:19:51Z</time>
      </trkpt>
      <trkpt lat="49.51317" lon="0.65156">
        <ele>104.4404297</ele>
        <time>2014-09-14T13:20:12Z</time>
      </trkpt>
      <trkpt lat="49.51313" lon="0.65171">
        <ele>105.4017334</ele>
        <time>2014-09-14T13:20:24Z</time>
      </trkpt>
      <trkpt lat="49.51311" lon="0.65176">
        <ele>105.8824463</ele>
        <time>2014-09-14T13:20:27Z</time>
      </trkpt>
      <trkpt lat="49.51306" lon="0.65188">
        <ele>105.4017334</ele>
        <time>2014-09-14T13:20:37Z</time>
      </trkpt>
      <trkpt lat="49.51302" lon="0.65195">
        <ele>104.9210205</ele>
        <time>2014-09-14T13:20:41Z</time>
      </trkpt>
      <trkpt lat="49.51296" lon="0.65208">
        <ele>104.9210205</ele>
        <time>2014-09-14T13:20:51Z</time>
      </trkpt>
      <trkpt lat="49.51291" lon="0.65221">
        <ele>103.4790039</ele>
        <time>2014-09-14T13:20:58Z</time>
      </trkpt>
      <trkpt lat="49.51289" lon="0.65231">
        <ele>101.0756836</ele>
        <time>2014-09-14T13:21:05Z</time>
      </trkpt>
      <trkpt lat="49.51285" lon="0.65242">
        <ele>99.1530762</ele>
        <time>2014-09-14T13:21:12Z</time>
      </trkpt>
      <trkpt lat="49.51285" lon="0.65276">
        <ele>102.0371094</ele>
        <time>2014-09-14T13:21:46Z</time>
      </trkpt>
      <trkpt lat="49.51283" lon="0.65296">
        <ele>103.4790039</ele>
        <time>2014-09-14T13:21:59Z</time>
      </trkpt>
      <trkpt lat="49.51283" lon="0.65315">
        <ele>103.4790039</ele>
        <time>2014-09-14T13:22:09Z</time>
      </trkpt>
      <trkpt lat="49.51283" lon="0.65324">
        <ele>103.9597168</ele>
        <time>2014-09-14T13:22:13Z</time>
      </trkpt>
      <trkpt lat="49.51281" lon="0.65336">
        <ele>104.4404297</ele>
        <time>2014-09-14T13:22:21Z</time>
      </trkpt>
      <trkpt lat="49.51281" lon="0.65347">
        <ele>106.3630371</ele>
        <time>2014-09-14T13:22:45Z</time>
      </trkpt>
      <trkpt lat="49.51281" lon="0.65354">
        <ele>106.3630371</ele>
        <time>2014-09-14T13:22:59Z</time>
      </trkpt>
      <trkpt lat="49.51283" lon="0.65373">
        <ele>105.8824463</ele>
        <time>2014-09-14T13:23:10Z</time>
      </trkpt>
      <trkpt lat="49.51283" lon="0.65386">
        <ele>105.8824463</ele>
        <time>2014-09-14T13:23:19Z</time>
      </trkpt>
      <trkpt lat="49.51283" lon="0.65399">
        <ele>106.3630371</ele>
        <time>2014-09-14T13:23:29Z</time>
      </trkpt>
      <trkpt lat="49.51283" lon="0.65416">
        <ele>106.8436279</ele>
        <time>2014-09-14T13:23:39Z</time>
      </trkpt>
      <trkpt lat="49.51281" lon="0.65429">
        <ele>106.3630371</ele>
        <time>2014-09-14T13:23:51Z</time>
      </trkpt>
      <trkpt lat="49.51274" lon="0.65446">
        <ele>109.2469482</ele>
        <time>2014-09-14T13:24:01Z</time>
      </trkpt>
      <trkpt lat="49.51266" lon="0.65457">
        <ele>112.1309814</ele>
        <time>2014-09-14T13:24:11Z</time>
      </trkpt>
      <trkpt lat="49.51253" lon="0.65463">
        <ele>114.5341797</ele>
        <time>2014-09-14T13:24:22Z</time>
      </trkpt>
      <trkpt lat="49.51248" lon="0.65465">
        <ele>115.0148926</ele>
        <time>2014-09-14T13:24:28Z</time>
      </trkpt>
      <trkpt lat="49.51242" lon="0.65467">
        <ele>115.9761963</ele>
        <time>2014-09-14T13:24:34Z</time>
      </trkpt>
      <trkpt lat="49.51236" lon="0.6547">
        <ele>116.4567871</ele>
        <time>2014-09-14T13:24:38Z</time>
      </trkpt>
      <trkpt lat="49.51229" lon="0.65472">
        <ele>117.8988037</ele>
        <time>2014-09-14T13:24:48Z</time>
      </trkpt>
      <trkpt lat="49.51223" lon="0.65476">
        <ele>119.3408203</ele>
        <time>2014-09-14T13:24:55Z</time>
      </trkpt>
      <trkpt lat="49.51216" lon="0.6548">
        <ele>119.3408203</ele>
        <time>2014-09-14T13:25:02Z</time>
      </trkpt>
      <trkpt lat="49.51212" lon="0.65482">
        <ele>119.3408203</ele>
        <time>2014-09-14T13:25:09Z</time>
      </trkpt>
      <trkpt lat="49.51203" lon="0.65489">
        <ele>117.8988037</ele>
        <time>2014-09-14T13:25:19Z</time>
      </trkpt>
      <trkpt lat="49.5119" lon="0.65497">
        <ele>114.0535889</ele>
        <time>2014-09-14T13:25:33Z</time>
      </trkpt>
      <trkpt lat="49.51182" lon="0.65504">
        <ele>112.6115723</ele>
        <time>2014-09-14T13:25:41Z</time>
      </trkpt>
      <trkpt lat="49.51173" lon="0.6551">
        <ele>110.6888428</ele>
        <time>2014-09-14T13:25:49Z</time>
      </trkpt>
      <trkpt lat="49.51163" lon="0.65519">
        <ele>107.3243408</ele>
        <time>2014-09-14T13:26:02Z</time>
      </trkpt>
      <trkpt lat="49.51154" lon="0.65525">
        <ele>105.8824463</ele>
        <time>2014-09-14T13:26:14Z</time>
      </trkpt>
      <trkpt lat="49.51143" lon="0.65538">
        <ele>109.7276611</ele>
        <time>2014-09-14T13:27:22Z</time>
      </trkpt>
      <trkpt lat="49.51135" lon="0.65553">
        <ele>115.4956055</ele>
        <time>2014-09-14T13:27:31Z</time>
      </trkpt>
      <trkpt lat="49.51124" lon="0.65566">
        <ele>120.302124</ele>
        <time>2014-09-14T13:27:41Z</time>
      </trkpt>
      <trkpt lat="49.51118" lon="0.65577">
        <ele>122.2247314</ele>
        <time>2014-09-14T13:27:51Z</time>
      </trkpt>
      <trkpt lat="49.51109" lon="0.65588">
        <ele>123.666748</ele>
        <time>2014-09-14T13:28:00Z</time>
      </trkpt>
      <trkpt lat="49.51105" lon="0.65594">
        <ele>124.6280518</ele>
        <time>2014-09-14T13:28:05Z</time>
      </trkpt>
      <trkpt lat="49.51096" lon="0.65607">
        <ele>128.9541016</ele>
        <time>2014-09-14T13:28:15Z</time>
      </trkpt>
      <trkpt lat="49.5109" lon="0.65615">
        <ele>134.7219238</ele>
        <time>2014-09-14T13:28:25Z</time>
      </trkpt>
      <trkpt lat="49.51081" lon="0.65628">
        <ele>136.1639404</ele>
        <time>2014-09-14T13:28:35Z</time>
      </trkpt>
      <trkpt lat="49.51072" lon="0.65641">
        <ele>136.6446533</ele>
        <time>2014-09-14T13:28:45Z</time>
      </trkpt>
      <trkpt lat="49.51064" lon="0.65654">
        <ele>134.7219238</ele>
        <time>2014-09-14T13:28:55Z</time>
      </trkpt>
      <trkpt lat="49.51055" lon="0.65665">
        <ele>133.2799072</ele>
        <time>2014-09-14T13:29:03Z</time>
      </trkpt>
      <trkpt lat="49.51049" lon="0.65673">
        <ele>130.876709</ele>
        <time>2014-09-14T13:29:12Z</time>
      </trkpt>
      <trkpt lat="49.51049" lon="0.65678">
        <ele>129.9152832</ele>
        <time>2014-09-14T13:29:21Z</time>
      </trkpt>
      <trkpt lat="49.51047" lon="0.65678">
        <ele>128.9541016</ele>
        <time>2014-09-14T13:29:34Z</time>
      </trkpt>
      <trkpt lat="49.51042" lon="0.65682">
        <ele>128.4733887</ele>
        <time>2014-09-14T13:29:41Z</time>
      </trkpt>
      <trkpt lat="49.51036" lon="0.65688">
        <ele>128.4733887</ele>
        <time>2014-09-14T13:29:48Z</time>
      </trkpt>
      <trkpt lat="49.51032" lon="0.65693">
        <ele>128.4733887</ele>
        <time>2014-09-14T13:29:52Z</time>
      </trkpt>
      <trkpt lat="49.51027" lon="0.65699">
        <ele>126.5506592</ele>
        <time>2014-09-14T13:29:58Z</time>
      </trkpt>
      <trkpt lat="49.51019" lon="0.6571">
        <ele>122.7054443</ele>
        <time>2014-09-14T13:30:07Z</time>
      </trkpt>
      <trkpt lat="49.51012" lon="0.65718">
        <ele>122.2247314</ele>
        <time>2014-09-14T13:30:15Z</time>
      </trkpt>
      <trkpt lat="49.51006" lon="0.65727">
        <ele>123.666748</ele>
        <time>2014-09-14T13:30:25Z</time>
      </trkpt>
      <trkpt lat="49.50995" lon="0.65742">
        <ele>127.5119629</ele>
        <time>2014-09-14T13:30:36Z</time>
      </trkpt>
      <trkpt lat="49.50989" lon="0.65751">
        <ele>128.4733887</ele>
        <time>2014-09-14T13:30:45Z</time>
      </trkpt>
      <trkpt lat="49.5098" lon="0.65763">
        <ele>128.9541016</ele>
        <time>2014-09-14T13:30:55Z</time>
      </trkpt>
      <trkpt lat="49.50974" lon="0.65774">
        <ele>129.9152832</ele>
        <time>2014-09-14T13:31:04Z</time>
      </trkpt>
      <trkpt lat="49.50965" lon="0.65783">
        <ele>129.4346924</ele>
        <time>2014-09-14T13:31:13Z</time>
      </trkpt>
      <trkpt lat="49.50959" lon="0.65789">
        <ele>128.4733887</ele>
        <time>2014-09-14T13:31:21Z</time>
      </trkpt>
      <trkpt lat="49.50954" lon="0.65789">
        <ele>128.4733887</ele>
        <time>2014-09-14T13:31:26Z</time>
      </trkpt>
      <trkpt lat="49.50952" lon="0.65787">
        <ele>128.4733887</ele>
        <time>2014-09-14T13:31:37Z</time>
      </trkpt>
      <trkpt lat="49.50952" lon="0.65783">
        <ele>128.4733887</ele>
        <time>2014-09-14T13:31:44Z</time>
      </trkpt>
      <trkpt lat="49.50952" lon="0.65778">
        <ele>128.9541016</ele>
        <time>2014-09-14T13:31:47Z</time>
      </trkpt>
      <trkpt lat="49.50952" lon="0.65772">
        <ele>128.4733887</ele>
        <time>2014-09-14T13:31:51Z</time>
      </trkpt>
      <trkpt lat="49.5095" lon="0.65755">
        <ele>128.4733887</ele>
        <time>2014-09-14T13:32:00Z</time>
      </trkpt>
      <trkpt lat="49.50948" lon="0.65746">
        <ele>127.9925537</ele>
        <time>2014-09-14T13:32:05Z</time>
      </trkpt>
      <trkpt lat="49.50946" lon="0.6574">
        <ele>126.5506592</ele>
        <time>2014-09-14T13:32:09Z</time>
      </trkpt>
      <trkpt lat="49.50944" lon="0.65725">
        <ele>125.5893555</ele>
        <time>2014-09-14T13:32:18Z</time>
      </trkpt>
      <trkpt lat="49.50944" lon="0.65723">
        <ele>125.5893555</ele>
        <time>2014-09-14T13:32:20Z</time>
      </trkpt>
      <trkpt lat="49.50942" lon="0.65708">
        <ele>127.0313721</ele>
        <time>2014-09-14T13:32:29Z</time>
      </trkpt>
      <trkpt lat="49.50942" lon="0.65699">
        <ele>127.9925537</ele>
        <time>2014-09-14T13:32:34Z</time>
      </trkpt>
      <trkpt lat="49.50939" lon="0.65682">
        <ele>125.5893555</ele>
        <time>2014-09-14T13:32:44Z</time>
      </trkpt>
      <trkpt lat="49.50939" lon="0.65678">
        <ele>125.5893555</ele>
        <time>2014-09-14T13:32:47Z</time>
      </trkpt>
      <trkpt lat="49.50937" lon="0.65663">
        <ele>125.5893555</ele>
        <time>2014-09-14T13:32:55Z</time>
      </trkpt>
      <trkpt lat="49.50937" lon="0.65656">
        <ele>125.1087646</ele>
        <time>2014-09-14T13:32:59Z</time>
      </trkpt>
      <trkpt lat="49.50935" lon="0.65641">
        <ele>125.5893555</ele>
        <time>2014-09-14T13:33:07Z</time>
      </trkpt>
      <trkpt lat="49.50935" lon="0.65637">
        <ele>125.5893555</ele>
        <time>2014-09-14T13:33:09Z</time>
      </trkpt>
      <trkpt lat="49.50935" lon="0.65633">
        <ele>125.5893555</ele>
        <time>2014-09-14T13:33:12Z</time>
      </trkpt>
      <trkpt lat="49.50935" lon="0.65628">
        <ele>125.5893555</ele>
        <time>2014-09-14T13:33:15Z</time>
      </trkpt>
      <trkpt lat="49.50933" lon="0.65615">
        <ele>126.5506592</ele>
        <time>2014-09-14T13:33:22Z</time>
      </trkpt>
      <trkpt lat="49.50933" lon="0.65613">
        <ele>127.0313721</ele>
        <time>2014-09-14T13:33:24Z</time>
      </trkpt>
      <trkpt lat="49.50931" lon="0.65598">
        <ele>127.5119629</ele>
        <time>2014-09-14T13:33:32Z</time>
      </trkpt>
      <trkpt lat="49.50931" lon="0.65596">
        <ele>127.0313721</ele>
        <time>2014-09-14T13:33:33Z</time>
      </trkpt>
      <trkpt lat="49.50929" lon="0.65583">
        <ele>125.5893555</ele>
        <time>2014-09-14T13:33:41Z</time>
      </trkpt>
      <trkpt lat="49.5092" lon="0.65568">
        <ele>125.5893555</ele>
        <time>2014-09-14T13:33:51Z</time>
      </trkpt>
      <trkpt lat="49.50912" lon="0.65553">
        <ele>126.0699463</ele>
        <time>2014-09-14T13:34:03Z</time>
      </trkpt>
      <trkpt lat="49.50907" lon="0.6554">
        <ele>126.0699463</ele>
        <time>2014-09-14T13:34:12Z</time>
      </trkpt>
      <trkpt lat="49.50907" lon="0.65532">
        <ele>127.0313721</ele>
        <time>2014-09-14T13:34:18Z</time>
      </trkpt>
      <trkpt lat="49.50905" lon="0.65527">
        <ele>127.9925537</ele>
        <time>2014-09-14T13:34:28Z</time>
      </trkpt>
      <trkpt lat="49.50905" lon="0.65527">
        <ele>128.4733887</ele>
        <time>2014-09-14T13:34:47Z</time>
      </trkpt>
      <trkpt lat="49.50907" lon="0.65525">
        <ele>128.9541016</ele>
        <time>2014-09-14T13:36:29Z</time>
      </trkpt>
      <trkpt lat="49.50907" lon="0.65525">
        <ele>128.9541016</ele>
        <time>2014-09-14T13:37:08Z</time>
      </trkpt>
      <trkpt lat="49.50907" lon="0.65525">
        <ele>129.4346924</ele>
        <time>2014-09-14T13:37:27Z</time>
      </trkpt>
      <trkpt lat="49.50905" lon="0.65515">
        <ele>128.9541016</ele>
        <time>2014-09-14T13:38:10Z</time>
      </trkpt>
      <trkpt lat="49.50903" lon="0.655">
        <ele>127.9925537</ele>
        <time>2014-09-14T13:38:20Z</time>
      </trkpt>
      <trkpt lat="49.50901" lon="0.65485">
        <ele>127.9925537</ele>
        <time>2014-09-14T13:38:30Z</time>
      </trkpt>
      <trkpt lat="49.50899" lon="0.65465">
        <ele>127.9925537</ele>
        <time>2014-09-14T13:38:41Z</time>
      </trkpt>
      <trkpt lat="49.50894" lon="0.65444">
        <ele>128.4733887</ele>
        <time>2014-09-14T13:38:53Z</time>
      </trkpt>
      <trkpt lat="49.5089" lon="0.65424">
        <ele>128.4733887</ele>
        <time>2014-09-14T13:39:05Z</time>
      </trkpt>
      <trkpt lat="49.50888" lon="0.65407">
        <ele>128.4733887</ele>
        <time>2014-09-14T13:39:15Z</time>
      </trkpt>
      <trkpt lat="49.50886" lon="0.65403">
        <ele>128.4733887</ele>
        <time>2014-09-14T13:39:18Z</time>
      </trkpt>
      <trkpt lat="49.50881" lon="0.65386">
        <ele>128.9541016</ele>
        <time>2014-09-14T13:39:28Z</time>
      </trkpt>
      <trkpt lat="49.50875" lon="0.65369">
        <ele>128.9541016</ele>
        <time>2014-09-14T13:39:39Z</time>
      </trkpt>
      <trkpt lat="49.50869" lon="0.65349">
        <ele>128.9541016</ele>
        <time>2014-09-14T13:39:51Z</time>
      </trkpt>
      <trkpt lat="49.50862" lon="0.6533">
        <ele>129.4346924</ele>
        <time>2014-09-14T13:40:03Z</time>
      </trkpt>
      <trkpt lat="49.50858" lon="0.65311">
        <ele>130.3959961</ele>
        <time>2014-09-14T13:40:14Z</time>
      </trkpt>
      <trkpt lat="49.50851" lon="0.65294">
        <ele>129.9152832</ele>
        <time>2014-09-14T13:40:26Z</time>
      </trkpt>
      <trkpt lat="49.50847" lon="0.65281">
        <ele>129.4346924</ele>
        <time>2014-09-14T13:40:33Z</time>
      </trkpt>
      <trkpt lat="49.50847" lon="0.6527">
        <ele>128.9541016</ele>
        <time>2014-09-14T13:40:39Z</time>
      </trkpt>
      <trkpt lat="49.50845" lon="0.65264">
        <ele>128.9541016</ele>
        <time>2014-09-14T13:40:44Z</time>
      </trkpt>
      <trkpt lat="49.50845" lon="0.65255">
        <ele>128.4733887</ele>
        <time>2014-09-14T13:40:49Z</time>
      </trkpt>
      <trkpt lat="49.50843" lon="0.65242">
        <ele>127.0313721</ele>
        <time>2014-09-14T13:40:57Z</time>
      </trkpt>
      <trkpt lat="49.50843" lon="0.65225">
        <ele>124.6280518</ele>
        <time>2014-09-14T13:41:07Z</time>
      </trkpt>
      <trkpt lat="49.50843" lon="0.6521">
        <ele>125.1087646</ele>
        <time>2014-09-14T13:41:17Z</time>
      </trkpt>
      <trkpt lat="49.50843" lon="0.65206">
        <ele>125.1087646</ele>
        <time>2014-09-14T13:41:20Z</time>
      </trkpt>
      <trkpt lat="49.50841" lon="0.65191">
        <ele>125.5893555</ele>
        <time>2014-09-14T13:41:30Z</time>
      </trkpt>
      <trkpt lat="49.50841" lon="0.65186">
        <ele>125.1087646</ele>
        <time>2014-09-14T13:41:32Z</time>
      </trkpt>
      <trkpt lat="49.50836" lon="0.65171">
        <ele>125.1087646</ele>
        <time>2014-09-14T13:41:41Z</time>
      </trkpt>
      <trkpt lat="49.50832" lon="0.65161">
        <ele>124.1473389</ele>
        <time>2014-09-14T13:41:49Z</time>
      </trkpt>
      <trkpt lat="49.50828" lon="0.6515">
        <ele>123.666748</ele>
        <time>2014-09-14T13:41:58Z</time>
      </trkpt>
      <trkpt lat="49.50821" lon="0.65141">
        <ele>122.7054443</ele>
        <time>2014-09-14T13:42:07Z</time>
      </trkpt>
      <trkpt lat="49.50815" lon="0.65135">
        <ele>122.2247314</ele>
        <time>2014-09-14T13:42:13Z</time>
      </trkpt>
      <trkpt lat="49.50813" lon="0.6513">
        <ele>122.2247314</ele>
        <time>2014-09-14T13:42:37Z</time>
      </trkpt>
      <trkpt lat="49.50806" lon="0.65124">
        <ele>124.1473389</ele>
        <time>2014-09-14T13:42:44Z</time>
      </trkpt>
      <trkpt lat="49.50798" lon="0.65113">
        <ele>124.6280518</ele>
        <time>2014-09-14T13:42:54Z</time>
      </trkpt>
      <trkpt lat="49.50791" lon="0.65103">
        <ele>126.0699463</ele>
        <time>2014-09-14T13:43:03Z</time>
      </trkpt>
      <trkpt lat="49.50785" lon="0.65096">
        <ele>126.0699463</ele>
        <time>2014-09-14T13:43:11Z</time>
      </trkpt>
      <trkpt lat="49.50781" lon="0.65088">
        <ele>126.0699463</ele>
        <time>2014-09-14T13:43:19Z</time>
      </trkpt>
      <trkpt lat="49.50781" lon="0.65088">
        <ele>126.0699463</ele>
        <time>2014-09-14T13:44:49Z</time>
      </trkpt>
      <trkpt lat="49.50781" lon="0.65088">
        <ele>126.5506592</ele>
        <time>2014-09-14T13:45:24Z</time>
      </trkpt>
      <trkpt lat="49.50781" lon="0.6509">
        <ele>126.5506592</ele>
        <time>2014-09-14T13:45:55Z</time>
      </trkpt>
      <trkpt lat="49.50776" lon="0.65079">
        <ele>131.3572998</ele>
        <time>2014-09-14T14:03:41Z</time>
      </trkpt>
      <trkpt lat="49.50772" lon="0.65075">
        <ele>132.7993164</ele>
        <time>2014-09-14T14:03:53Z</time>
      </trkpt>
      <trkpt lat="49.50766" lon="0.65062">
        <ele>132.7993164</ele>
        <time>2014-09-14T14:04:04Z</time>
      </trkpt>
      <trkpt lat="49.50761" lon="0.6506">
        <ele>133.760498</ele>
        <time>2014-09-14T14:04:09Z</time>
      </trkpt>
      <trkpt lat="49.50751" lon="0.65053">
        <ele>135.2025146</ele>
        <time>2014-09-14T14:04:18Z</time>
      </trkpt>
      <trkpt lat="49.5074" lon="0.6506">
        <ele>134.7219238</ele>
        <time>2014-09-14T14:04:30Z</time>
      </trkpt>
      <trkpt lat="49.50727" lon="0.65064">
        <ele>133.2799072</ele>
        <time>2014-09-14T14:04:42Z</time>
      </trkpt>
      <trkpt lat="49.50716" lon="0.65068">
        <ele>131.8378906</ele>
        <time>2014-09-14T14:04:54Z</time>
      </trkpt>
      <trkpt lat="49.50703" lon="0.65075">
        <ele>129.4346924</ele>
        <time>2014-09-14T14:05:05Z</time>
      </trkpt>
      <trkpt lat="49.50693" lon="0.65081">
        <ele>127.9925537</ele>
        <time>2014-09-14T14:05:17Z</time>
      </trkpt>
      <trkpt lat="49.50684" lon="0.65085">
        <ele>128.4733887</ele>
        <time>2014-09-14T14:05:27Z</time>
      </trkpt>
      <trkpt lat="49.50675" lon="0.6509">
        <ele>131.3572998</ele>
        <time>2014-09-14T14:05:38Z</time>
      </trkpt>
      <trkpt lat="49.50669" lon="0.65094">
        <ele>130.876709</ele>
        <time>2014-09-14T14:05:47Z</time>
      </trkpt>
      <trkpt lat="49.5066" lon="0.65098">
        <ele>128.9541016</ele>
        <time>2014-09-14T14:05:58Z</time>
      </trkpt>
      <trkpt lat="49.50658" lon="0.651">
        <ele>128.9541016</ele>
        <time>2014-09-14T14:06:02Z</time>
      </trkpt>
      <trkpt lat="49.50648" lon="0.65105">
        <ele>128.9541016</ele>
        <time>2014-09-14T14:06:12Z</time>
      </trkpt>
      <trkpt lat="49.50637" lon="0.65111">
        <ele>127.9925537</ele>
        <time>2014-09-14T14:06:22Z</time>
      </trkpt>
      <trkpt lat="49.50626" lon="0.65115">
        <ele>126.0699463</ele>
        <time>2014-09-14T14:06:33Z</time>
      </trkpt>
      <trkpt lat="49.50609" lon="0.65124">
        <ele>123.1861572</ele>
        <time>2014-09-14T14:06:47Z</time>
      </trkpt>
      <trkpt lat="49.50598" lon="0.65128">
        <ele>121.7441406</ele>
        <time>2014-09-14T14:06:57Z</time>
      </trkpt>
      <trkpt lat="49.50583" lon="0.65133">
        <ele>120.302124</ele>
        <time>2014-09-14T14:07:09Z</time>
      </trkpt>
      <trkpt lat="49.5057" lon="0.65135">
        <ele>120.302124</ele>
        <time>2014-09-14T14:07:20Z</time>
      </trkpt>
      <trkpt lat="49.50555" lon="0.65135">
        <ele>119.8214111</ele>
        <time>2014-09-14T14:07:33Z</time>
      </trkpt>
      <trkpt lat="49.50538" lon="0.65135">
        <ele>119.8214111</ele>
        <time>2014-09-14T14:07:46Z</time>
      </trkpt>
      <trkpt lat="49.50527" lon="0.65135">
        <ele>120.302124</ele>
        <time>2014-09-14T14:07:57Z</time>
      </trkpt>
      <trkpt lat="49.50512" lon="0.65133">
        <ele>120.7828369</ele>
        <time>2014-09-14T14:08:09Z</time>
      </trkpt>
      <trkpt lat="49.505" lon="0.6513">
        <ele>121.2635498</ele>
        <time>2014-09-14T14:08:21Z</time>
      </trkpt>
      <trkpt lat="49.50485" lon="0.65124">
        <ele>121.2635498</ele>
        <time>2014-09-14T14:08:34Z</time>
      </trkpt>
      <trkpt lat="49.50472" lon="0.65113">
        <ele>122.7054443</ele>
        <time>2014-09-14T14:08:47Z</time>
      </trkpt>
      <trkpt lat="49.50459" lon="0.65107">
        <ele>122.7054443</ele>
        <time>2014-09-14T14:08:58Z</time>
      </trkpt>
      <trkpt lat="49.50446" lon="0.65096">
        <ele>123.666748</ele>
        <time>2014-09-14T14:09:11Z</time>
      </trkpt>
      <trkpt lat="49.50435" lon="0.65088">
        <ele>123.1861572</ele>
        <time>2014-09-14T14:09:22Z</time>
      </trkpt>
      <trkpt lat="49.50424" lon="0.65079">
        <ele>123.1861572</ele>
        <time>2014-09-14T14:09:32Z</time>
      </trkpt>
      <trkpt lat="49.50412" lon="0.65066">
        <ele>123.666748</ele>
        <time>2014-09-14T14:09:44Z</time>
      </trkpt>
      <trkpt lat="49.50401" lon="0.65055">
        <ele>123.666748</ele>
        <time>2014-09-14T14:09:56Z</time>
      </trkpt>
      <trkpt lat="49.5039" lon="0.65043">
        <ele>123.1861572</ele>
        <time>2014-09-14T14:10:09Z</time>
      </trkpt>
      <trkpt lat="49.50379" lon="0.65034">
        <ele>122.7054443</ele>
        <time>2014-09-14T14:10:20Z</time>
      </trkpt>
      <trkpt lat="49.50367" lon="0.65023">
        <ele>122.7054443</ele>
        <time>2014-09-14T14:10:34Z</time>
      </trkpt>
      <trkpt lat="49.50356" lon="0.65017">
        <ele>122.2247314</ele>
        <time>2014-09-14T14:10:45Z</time>
      </trkpt>
      <trkpt lat="49.50351" lon="0.65017">
        <ele>122.2247314</ele>
        <time>2014-09-14T14:10:50Z</time>
      </trkpt>
      <trkpt lat="49.50341" lon="0.65015">
        <ele>122.7054443</ele>
        <time>2014-09-14T14:11:00Z</time>
      </trkpt>
      <trkpt lat="49.5033" lon="0.65012">
        <ele>123.1861572</ele>
        <time>2014-09-14T14:11:13Z</time>
      </trkpt>
      <trkpt lat="49.50317" lon="0.65008">
        <ele>122.7054443</ele>
        <time>2014-09-14T14:11:25Z</time>
      </trkpt>
      <trkpt lat="49.50304" lon="0.65008">
        <ele>121.7441406</ele>
        <time>2014-09-14T14:11:37Z</time>
      </trkpt>
      <trkpt lat="49.50291" lon="0.6501">
        <ele>119.8214111</ele>
        <time>2014-09-14T14:11:50Z</time>
      </trkpt>
      <trkpt lat="49.50279" lon="0.65012">
        <ele>119.3408203</ele>
        <time>2014-09-14T14:12:01Z</time>
      </trkpt>
      <trkpt lat="49.50266" lon="0.65012">
        <ele>119.8214111</ele>
        <time>2014-09-14T14:12:13Z</time>
      </trkpt>
      <trkpt lat="49.50255" lon="0.65015">
        <ele>119.8214111</ele>
        <time>2014-09-14T14:12:23Z</time>
      </trkpt>
      <trkpt lat="49.50244" lon="0.65015">
        <ele>120.302124</ele>
        <time>2014-09-14T14:12:34Z</time>
      </trkpt>
      <trkpt lat="49.5024" lon="0.65015">
        <ele>120.7828369</ele>
        <time>2014-09-14T14:12:38Z</time>
      </trkpt>
      <trkpt lat="49.50231" lon="0.65017">
        <ele>121.7441406</ele>
        <time>2014-09-14T14:12:48Z</time>
      </trkpt>
      <trkpt lat="49.50221" lon="0.65019">
        <ele>122.7054443</ele>
        <time>2014-09-14T14:12:59Z</time>
      </trkpt>
      <trkpt lat="49.50214" lon="0.65019">
        <ele>123.1861572</ele>
        <time>2014-09-14T14:13:04Z</time>
      </trkpt>
      <trkpt lat="49.50203" lon="0.65021">
        <ele>123.1861572</ele>
        <time>2014-09-14T14:13:15Z</time>
      </trkpt>
      <trkpt lat="49.50193" lon="0.65023">
        <ele>124.1473389</ele>
        <time>2014-09-14T14:13:26Z</time>
      </trkpt>
      <trkpt lat="49.5018" lon="0.65023">
        <ele>124.6280518</ele>
        <time>2014-09-14T14:13:38Z</time>
      </trkpt>
      <trkpt lat="49.50176" lon="0.65025">
        <ele>125.1087646</ele>
        <time>2014-09-14T14:13:43Z</time>
      </trkpt>
      <trkpt lat="49.50163" lon="0.65027">
        <ele>125.5893555</ele>
        <time>2014-09-14T14:13:55Z</time>
      </trkpt>
      <trkpt lat="49.50154" lon="0.6503">
        <ele>125.5893555</ele>
        <time>2014-09-14T14:14:03Z</time>
      </trkpt>
      <trkpt lat="49.50145" lon="0.65034">
        <ele>126.0699463</ele>
        <time>2014-09-14T14:14:12Z</time>
      </trkpt>
      <trkpt lat="49.50141" lon="0.65036">
        <ele>126.0699463</ele>
        <time>2014-09-14T14:14:18Z</time>
      </trkpt>
      <trkpt lat="49.50133" lon="0.6504">
        <ele>126.5506592</ele>
        <time>2014-09-14T14:14:26Z</time>
      </trkpt>
      <trkpt lat="49.5012" lon="0.65047">
        <ele>126.0699463</ele>
        <time>2014-09-14T14:14:39Z</time>
      </trkpt>
      <trkpt lat="49.50109" lon="0.65051">
        <ele>126.0699463</ele>
        <time>2014-09-14T14:14:50Z</time>
      </trkpt>
      <trkpt lat="49.501" lon="0.65055">
        <ele>125.5893555</ele>
        <time>2014-09-14T14:14:58Z</time>
      </trkpt>
      <trkpt lat="49.50098" lon="0.65058">
        <ele>125.5893555</ele>
        <time>2014-09-14T14:15:02Z</time>
      </trkpt>
      <trkpt lat="49.5009" lon="0.6506">
        <ele>125.5893555</ele>
        <time>2014-09-14T14:15:09Z</time>
      </trkpt>
      <trkpt lat="49.50085" lon="0.6506">
        <ele>125.5893555</ele>
        <time>2014-09-14T14:15:14Z</time>
      </trkpt>
      <trkpt lat="49.50077" lon="0.6506">
        <ele>125.5893555</ele>
        <time>2014-09-14T14:15:22Z</time>
      </trkpt>
      <trkpt lat="49.50073" lon="0.6506">
        <ele>125.5893555</ele>
        <time>2014-09-14T14:15:26Z</time>
      </trkpt>
      <trkpt lat="49.50066" lon="0.65055">
        <ele>125.1087646</ele>
        <time>2014-09-14T14:15:34Z</time>
      </trkpt>
      <trkpt lat="49.50062" lon="0.65055">
        <ele>125.1087646</ele>
        <time>2014-09-14T14:15:55Z</time>
      </trkpt>
      <trkpt lat="49.50053" lon="0.65055">
        <ele>126.0699463</ele>
        <time>2014-09-14T14:16:04Z</time>
      </trkpt>
      <trkpt lat="49.50049" lon="0.65055">
        <ele>126.5506592</ele>
        <time>2014-09-14T14:16:07Z</time>
      </trkpt>
      <trkpt lat="49.50045" lon="0.65053">
        <ele>126.0699463</ele>
        <time>2014-09-14T14:16:12Z</time>
      </trkpt>
      <trkpt lat="49.50042" lon="0.65055">
        <ele>125.5893555</ele>
        <time>2014-09-14T14:16:16Z</time>
      </trkpt>
      <trkpt lat="49.50032" lon="0.65053">
        <ele>124.1473389</ele>
        <time>2014-09-14T14:16:26Z</time>
      </trkpt>
      <trkpt lat="49.50023" lon="0.65049">
        <ele>121.7441406</ele>
        <time>2014-09-14T14:16:40Z</time>
      </trkpt>
      <trkpt lat="49.50019" lon="0.65049">
        <ele>121.7441406</ele>
        <time>2014-09-14T14:16:43Z</time>
      </trkpt>
      <trkpt lat="49.5001" lon="0.65045">
        <ele>120.302124</ele>
        <time>2014-09-14T14:16:51Z</time>
      </trkpt>
      <trkpt lat="49.50002" lon="0.6504">
        <ele>119.8214111</ele>
        <time>2014-09-14T14:16:59Z</time>
      </trkpt>
      <trkpt lat="49.49993" lon="0.65038">
        <ele>118.8601074</ele>
        <time>2014-09-14T14:17:10Z</time>
      </trkpt>
      <trkpt lat="49.49985" lon="0.65032">
        <ele>118.3793945</ele>
        <time>2014-09-14T14:17:19Z</time>
      </trkpt>
      <trkpt lat="49.4998" lon="0.65032">
        <ele>118.3793945</ele>
        <time>2014-09-14T14:17:22Z</time>
      </trkpt>
      <trkpt lat="49.49978" lon="0.65032">
        <ele>117.8988037</ele>
        <time>2014-09-14T14:17:26Z</time>
      </trkpt>
      <trkpt lat="49.49974" lon="0.65034">
        <ele>117.4182129</ele>
        <time>2014-09-14T14:17:31Z</time>
      </trkpt>
      <trkpt lat="49.49963" lon="0.6503">
        <ele>116.9375</ele>
        <time>2014-09-14T14:17:42Z</time>
      </trkpt>
      <trkpt lat="49.49952" lon="0.65025">
        <ele>116.4567871</ele>
        <time>2014-09-14T14:17:56Z</time>
      </trkpt>
      <trkpt lat="49.49946" lon="0.65023">
        <ele>115.0148926</ele>
        <time>2014-09-14T14:18:05Z</time>
      </trkpt>
      <trkpt lat="49.49946" lon="0.65021">
        <ele>114.5341797</ele>
        <time>2014-09-14T14:18:22Z</time>
      </trkpt>
      <trkpt lat="49.49939" lon="0.65019">
        <ele>115.0148926</ele>
        <time>2014-09-14T14:18:31Z</time>
      </trkpt>
      <trkpt lat="49.49937" lon="0.65017">
        <ele>114.5341797</ele>
        <time>2014-09-14T14:18:45Z</time>
      </trkpt>
      <trkpt lat="49.49929" lon="0.65012">
        <ele>114.5341797</ele>
        <time>2014-09-14T14:19:01Z</time>
      </trkpt>
      <trkpt lat="49.49929" lon="0.65012">
        <ele>114.5341797</ele>
        <time>2014-09-14T14:19:02Z</time>
      </trkpt>
      <trkpt lat="49.49922" lon="0.6501">
        <ele>115.0148926</ele>
        <time>2014-09-14T14:19:07Z</time>
      </trkpt>
      <trkpt lat="49.49912" lon="0.65006">
        <ele>113.572998</ele>
        <time>2014-09-14T14:19:19Z</time>
      </trkpt>
      <trkpt lat="49.49899" lon="0.65004">
        <ele>111.6502686</ele>
        <time>2014-09-14T14:19:31Z</time>
      </trkpt>
      <trkpt lat="49.4989" lon="0.65004">
        <ele>111.1695557</ele>
        <time>2014-09-14T14:19:39Z</time>
      </trkpt>
      <trkpt lat="49.49882" lon="0.65">
        <ele>110.208252</ele>
        <time>2014-09-14T14:19:49Z</time>
      </trkpt>
      <trkpt lat="49.49875" lon="0.64997">
        <ele>109.2469482</ele>
        <time>2014-09-14T14:19:57Z</time>
      </trkpt>
      <trkpt lat="49.49867" lon="0.64995">
        <ele>109.2469482</ele>
        <time>2014-09-14T14:20:07Z</time>
      </trkpt>
      <trkpt lat="49.49867" lon="0.64995">
        <ele>109.2469482</ele>
        <time>2014-09-14T14:20:08Z</time>
      </trkpt>
      <trkpt lat="49.4986" lon="0.64993">
        <ele>109.2469482</ele>
        <time>2014-09-14T14:20:16Z</time>
      </trkpt>
      <trkpt lat="49.49854" lon="0.64993">
        <ele>108.7662354</ele>
        <time>2014-09-14T14:20:25Z</time>
      </trkpt>
      <trkpt lat="49.49847" lon="0.64991">
        <ele>108.7662354</ele>
        <time>2014-09-14T14:20:33Z</time>
      </trkpt>
      <trkpt lat="49.49841" lon="0.64989">
        <ele>107.8050537</ele>
        <time>2014-09-14T14:20:40Z</time>
      </trkpt>
      <trkpt lat="49.49836" lon="0.64987">
        <ele>105.4017334</ele>
        <time>2014-09-14T14:20:48Z</time>
      </trkpt>
      <trkpt lat="49.4983" lon="0.64982">
        <ele>102.998291</ele>
        <time>2014-09-14T14:22:41Z</time>
      </trkpt>
      <trkpt lat="49.49824" lon="0.64982">
        <ele>105.8824463</ele>
        <time>2014-09-14T14:25:09Z</time>
      </trkpt>
      <trkpt lat="49.49824" lon="0.64982">
        <ele>105.8824463</ele>
        <time>2014-09-14T14:25:24Z</time>
      </trkpt>
      <trkpt lat="49.49815" lon="0.64985">
        <ele>106.3630371</ele>
        <time>2014-09-14T14:25:36Z</time>
      </trkpt>
      <trkpt lat="49.49794" lon="0.64987">
        <ele>104.9210205</ele>
        <time>2014-09-14T14:26:11Z</time>
      </trkpt>
      <trkpt lat="49.49766" lon="0.64993">
        <ele>95.7884521</ele>
        <time>2014-09-14T14:26:41Z</time>
      </trkpt>
      <trkpt lat="49.49746" lon="0.64995">
        <ele>88.0980225</ele>
        <time>2014-09-14T14:27:00Z</time>
      </trkpt>
      <trkpt lat="49.49736" lon="0.64993">
        <ele>84.2526855</ele>
        <time>2014-09-14T14:27:09Z</time>
      </trkpt>
      <trkpt lat="49.49712" lon="0.64985">
        <ele>86.175293</ele>
        <time>2014-09-14T14:27:26Z</time>
      </trkpt>
      <trkpt lat="49.49643" lon="0.64952">
        <ele>86.175293</ele>
        <time>2014-09-14T14:28:44Z</time>
      </trkpt>
      <trkpt lat="49.49622" lon="0.6495">
        <ele>84.2526855</ele>
        <time>2014-09-14T14:29:01Z</time>
      </trkpt>
      <trkpt lat="49.49615" lon="0.6495">
        <ele>81.3687744</ele>
        <time>2014-09-14T14:29:09Z</time>
      </trkpt>
      <trkpt lat="49.49588" lon="0.64955">
        <ele>69.8328857</ele>
        <time>2014-09-14T14:29:36Z</time>
      </trkpt>
      <trkpt lat="49.49575" lon="0.64965">
        <ele>59.2584229</ele>
        <time>2014-09-14T14:29:58Z</time>
      </trkpt>
      <trkpt lat="49.49568" lon="0.64974">
        <ele>53.4904785</ele>
        <time>2014-09-14T14:30:09Z</time>
      </trkpt>
      <trkpt lat="49.49553" lon="0.6498">
        <ele>45.7999268</ele>
        <time>2014-09-14T14:30:28Z</time>
      </trkpt>
      <trkpt lat="49.49532" lon="0.64985">
        <ele>49.6452637</ele>
        <time>2014-09-14T14:30:49Z</time>
      </trkpt>
      <trkpt lat="49.49519" lon="0.64989">
        <ele>54.4517822</ele>
        <time>2014-09-14T14:30:59Z</time>
      </trkpt>
      <trkpt lat="49.49491" lon="0.64987">
        <ele>64.0650635</ele>
        <time>2014-09-14T14:31:17Z</time>
      </trkpt>
      <trkpt lat="49.4947" lon="0.64995">
        <ele>66.9489746</ele>
        <time>2014-09-14T14:31:34Z</time>
      </trkpt>
      <trkpt lat="49.49452" lon="0.64993">
        <ele>69.3522949</ele>
        <time>2014-09-14T14:31:48Z</time>
      </trkpt>
      <trkpt lat="49.49409" lon="0.64991">
        <ele>69.3522949</ele>
        <time>2014-09-14T14:33:07Z</time>
      </trkpt>
      <trkpt lat="49.49401" lon="0.64991">
        <ele>68.3908691</ele>
        <time>2014-09-14T14:33:18Z</time>
      </trkpt>
      <trkpt lat="49.49373" lon="0.64976">
        <ele>51.0871582</ele>
        <time>2014-09-14T14:33:54Z</time>
      </trkpt>
      <trkpt lat="49.49367" lon="0.64976">
        <ele>42.4354248</ele>
        <time>2014-09-14T14:34:07Z</time>
      </trkpt>
      <trkpt lat="49.49354" lon="0.64978">
        <ele>35.2254639</ele>
        <time>2014-09-14T14:34:26Z</time>
      </trkpt>
      <trkpt lat="49.4933" lon="0.64976">
        <ele>28.9769287</ele>
        <time>2014-09-14T14:34:51Z</time>
      </trkpt>
      <trkpt lat="49.49313" lon="0.64974">
        <ele>27.5349121</ele>
        <time>2014-09-14T14:35:09Z</time>
      </trkpt>
      <trkpt lat="49.49298" lon="0.64974">
        <ele>28.0155029</ele>
        <time>2014-09-14T14:35:21Z</time>
      </trkpt>
      <trkpt lat="49.49279" lon="0.64972">
        <ele>29.4575195</ele>
        <time>2014-09-14T14:35:40Z</time>
      </trkpt>
      <trkpt lat="49.49268" lon="0.64974">
        <ele>28.4962158</ele>
        <time>2014-09-14T14:35:49Z</time>
      </trkpt>
      <trkpt lat="49.49255" lon="0.64974">
        <ele>29.9381104</ele>
        <time>2014-09-14T14:36:01Z</time>
      </trkpt>
      <trkpt lat="49.49246" lon="0.64972">
        <ele>30.8995361</ele>
        <time>2014-09-14T14:36:10Z</time>
      </trkpt>
      <trkpt lat="49.4924" lon="0.6497">
        <ele>30.8995361</ele>
        <time>2014-09-14T14:36:15Z</time>
      </trkpt>
      <trkpt lat="49.49225" lon="0.64972">
        <ele>33.3028564</ele>
        <time>2014-09-14T14:36:27Z</time>
      </trkpt>
      <trkpt lat="49.49212" lon="0.64965">
        <ele>40.5128174</ele>
        <time>2014-09-14T14:36:35Z</time>
      </trkpt>
      <trkpt lat="49.49199" lon="0.64967">
        <ele>44.838623</ele>
        <time>2014-09-14T14:36:46Z</time>
      </trkpt>
      <trkpt lat="49.49184" lon="0.64967">
        <ele>46.7612305</ele>
        <time>2014-09-14T14:36:58Z</time>
      </trkpt>
      <trkpt lat="49.49176" lon="0.64965">
        <ele>49.1645508</ele>
        <time>2014-09-14T14:37:08Z</time>
      </trkpt>
      <trkpt lat="49.4918" lon="0.64942">
        <ele>47.7225342</ele>
        <time>2014-09-14T14:38:22Z</time>
      </trkpt>
      <trkpt lat="49.49221" lon="0.64858">
        <ele>38.5900879</ele>
        <time>2014-09-14T14:39:41Z</time>
      </trkpt>
      <trkpt lat="49.49225" lon="0.64847">
        <ele>40.5128174</ele>
        <time>2014-09-14T14:39:47Z</time>
      </trkpt>
      <trkpt lat="49.49229" lon="0.64839">
        <ele>42.9160156</ele>
        <time>2014-09-14T14:39:55Z</time>
      </trkpt>
      <trkpt lat="49.4924" lon="0.64826">
        <ele>43.3966064</ele>
        <time>2014-09-14T14:40:11Z</time>
      </trkpt>
      <trkpt lat="49.49249" lon="0.64817">
        <ele>42.9160156</ele>
        <time>2014-09-14T14:40:24Z</time>
      </trkpt>
      <trkpt lat="49.49255" lon="0.64813">
        <ele>42.4354248</ele>
        <time>2014-09-14T14:40:32Z</time>
      </trkpt>
      <trkpt lat="49.49268" lon="0.648">
        <ele>43.3966064</ele>
        <time>2014-09-14T14:40:47Z</time>
      </trkpt>
      <trkpt lat="49.49272" lon="0.64787">
        <ele>43.3966064</ele>
        <time>2014-09-14T14:40:55Z</time>
      </trkpt>
      <trkpt lat="49.49281" lon="0.64774">
        <ele>41.9547119</ele>
        <time>2014-09-14T14:41:04Z</time>
      </trkpt>
      <trkpt lat="49.49289" lon="0.64766">
        <ele>39.5512695</ele>
        <time>2014-09-14T14:41:15Z</time>
      </trkpt>
      <trkpt lat="49.49311" lon="0.64749">
        <ele>29.9381104</ele>
        <time>2014-09-14T14:41:40Z</time>
      </trkpt>
      <trkpt lat="49.49328" lon="0.64714">
        <ele>27.5349121</ele>
        <time>2014-09-14T14:42:12Z</time>
      </trkpt>
      <trkpt lat="49.49339" lon="0.64695">
        <ele>24.1702881</ele>
        <time>2014-09-14T14:42:30Z</time>
      </trkpt>
      <trkpt lat="49.49345" lon="0.64684">
        <ele>25.1317139</ele>
        <time>2014-09-14T14:42:41Z</time>
      </trkpt>
      <trkpt lat="49.49373" lon="0.64661">
        <ele>8.3085938</ele>
        <time>2014-09-14T14:43:38Z</time>
      </trkpt>
      <trkpt lat="49.49386" lon="0.64658">
        <ele>4.9438477</ele>
        <time>2014-09-14T14:43:51Z</time>
      </trkpt>
      <trkpt lat="49.49399" lon="0.64661">
        <ele>3.0212402</ele>
        <time>2014-09-14T14:43:58Z</time>
      </trkpt>
      <trkpt lat="49.49407" lon="0.64663">
        <ele>-0.8240967</ele>
        <time>2014-09-14T14:44:10Z</time>
      </trkpt>
      <trkpt lat="49.49435" lon="0.64678">
        <ele>2.5406494</ele>
        <time>2014-09-14T14:44:52Z</time>
      </trkpt>
      <trkpt lat="49.49472" lon="0.64684">
        <ele>4.4632568</ele>
        <time>2014-09-14T14:45:30Z</time>
      </trkpt>
      <trkpt lat="49.49491" lon="0.64682">
        <ele>5.9052734</ele>
        <time>2014-09-14T14:45:50Z</time>
      </trkpt>
      <trkpt lat="49.49506" lon="0.6468">
        <ele>7.347168</ele>
        <time>2014-09-14T14:46:03Z</time>
      </trkpt>
      <trkpt lat="49.49523" lon="0.6468">
        <ele>8.3085938</ele>
        <time>2014-09-14T14:46:16Z</time>
      </trkpt>
      <trkpt lat="49.49543" lon="0.64686">
        <ele>10.2312012</ele>
        <time>2014-09-14T14:46:36Z</time>
      </trkpt>
      <trkpt lat="49.49615" lon="0.64678">
        <ele>15.9990234</ele>
        <time>2014-09-14T14:47:35Z</time>
      </trkpt>
      <trkpt lat="49.49628" lon="0.64669">
        <ele>17.4411621</ele>
        <time>2014-09-14T14:47:48Z</time>
      </trkpt>
      <trkpt lat="49.49641" lon="0.64661">
        <ele>19.3637695</ele>
        <time>2014-09-14T14:47:57Z</time>
      </trkpt>
      <trkpt lat="49.49734" lon="0.64577">
        <ele>32.8222656</ele>
        <time>2014-09-14T14:48:58Z</time>
      </trkpt>
      <trkpt lat="49.49746" lon="0.64564">
        <ele>35.2254639</ele>
        <time>2014-09-14T14:50:13Z</time>
      </trkpt>
      <trkpt lat="49.49738" lon="0.64538">
        <ele>50.1259766</ele>
        <time>2014-09-14T14:59:38Z</time>
      </trkpt>
      <trkpt lat="49.49738" lon="0.64528">
        <ele>48.2033691</ele>
        <time>2014-09-14T14:59:48Z</time>
      </trkpt>
      <trkpt lat="49.49742" lon="0.64512">
        <ele>44.3580322</ele>
        <time>2014-09-14T15:00:00Z</time>
      </trkpt>
      <trkpt lat="49.49749" lon="0.64478">
        <ele>37.1480713</ele>
        <time>2014-09-14T15:00:23Z</time>
      </trkpt>
      <trkpt lat="49.49755" lon="0.64457">
        <ele>36.6674805</ele>
        <time>2014-09-14T15:00:38Z</time>
      </trkpt>
      <trkpt lat="49.49761" lon="0.64442">
        <ele>36.1867676</ele>
        <time>2014-09-14T15:00:50Z</time>
      </trkpt>
      <trkpt lat="49.49761" lon="0.64429">
        <ele>35.2254639</ele>
        <time>2014-09-14T15:00:59Z</time>
      </trkpt>
      <trkpt lat="49.49766" lon="0.64416">
        <ele>34.744873</ele>
        <time>2014-09-14T15:01:09Z</time>
      </trkpt>
      <trkpt lat="49.49779" lon="0.64388">
        <ele>26.0928955</ele>
        <time>2014-09-14T15:01:32Z</time>
      </trkpt>
      <trkpt lat="49.49791" lon="0.64373">
        <ele>20.3249512</ele>
        <time>2014-09-14T15:01:52Z</time>
      </trkpt>
      <trkpt lat="49.49802" lon="0.64362">
        <ele>17.4411621</ele>
        <time>2014-09-14T15:02:02Z</time>
      </trkpt>
      <trkpt lat="49.49811" lon="0.64356">
        <ele>15.5184326</ele>
        <time>2014-09-14T15:02:14Z</time>
      </trkpt>
      <trkpt lat="49.49867" lon="0.64332">
        <ele>9.7506104</ele>
        <time>2014-09-14T15:03:09Z</time>
      </trkpt>
      <trkpt lat="49.49875" lon="0.64326">
        <ele>10.2312012</ele>
        <time>2014-09-14T15:03:18Z</time>
      </trkpt>
      <trkpt lat="49.49955" lon="0.64242">
        <ele>1.0986328</ele>
        <time>2014-09-14T15:04:40Z</time>
      </trkpt>
      <trkpt lat="49.49972" lon="0.64216">
        <ele>1.5793457</ele>
        <time>2014-09-14T15:04:58Z</time>
      </trkpt>
      <trkpt lat="49.4998" lon="0.64173">
        <ele>3.0212402</ele>
        <time>2014-09-14T15:05:21Z</time>
      </trkpt>
      <trkpt lat="49.49987" lon="0.6415">
        <ele>4.4632568</ele>
        <time>2014-09-14T15:05:35Z</time>
      </trkpt>
      <trkpt lat="49.49987" lon="0.64141">
        <ele>4.9438477</ele>
        <time>2014-09-14T15:05:39Z</time>
      </trkpt>
      <trkpt lat="49.49987" lon="0.64128">
        <ele>5.9052734</ele>
        <time>2014-09-14T15:05:45Z</time>
      </trkpt>
      <trkpt lat="49.49989" lon="0.64113">
        <ele>9.2698975</ele>
        <time>2014-09-14T15:05:53Z</time>
      </trkpt>
      <trkpt lat="49.49997" lon="0.64077">
        <ele>15.5184326</ele>
        <time>2014-09-14T15:06:14Z</time>
      </trkpt>
      <trkpt lat="49.49997" lon="0.64062">
        <ele>18.8830566</ele>
        <time>2014-09-14T15:06:24Z</time>
      </trkpt>
      <trkpt lat="49.49997" lon="0.64019">
        <ele>18.4023438</ele>
        <time>2014-09-14T15:06:48Z</time>
      </trkpt>
      <trkpt lat="49.5" lon="0.63998">
        <ele>17.9217529</ele>
        <time>2014-09-14T15:07:01Z</time>
      </trkpt>
      <trkpt lat="49.5" lon="0.63961">
        <ele>16.4797363</ele>
        <time>2014-09-14T15:07:22Z</time>
      </trkpt>
      <trkpt lat="49.49997" lon="0.63877">
        <ele>9.7506104</ele>
        <time>2014-09-14T15:08:13Z</time>
      </trkpt>
      <trkpt lat="49.49991" lon="0.63826">
        <ele>7.347168</ele>
        <time>2014-09-14T15:08:42Z</time>
      </trkpt>
      <trkpt lat="49.49989" lon="0.63807">
        <ele>8.3085938</ele>
        <time>2014-09-14T15:08:51Z</time>
      </trkpt>
      <trkpt lat="49.49989" lon="0.63792">
        <ele>10.711792</ele>
        <time>2014-09-14T15:08:57Z</time>
      </trkpt>
      <trkpt lat="49.4997" lon="0.63661">
        <ele>14.5570068</ele>
        <time>2014-09-14T15:10:16Z</time>
      </trkpt>
      <trkpt lat="49.49961" lon="0.63624">
        <ele>26.0928955</ele>
        <time>2014-09-14T15:11:30Z</time>
      </trkpt>
      <trkpt lat="49.49959" lon="0.63605">
        <ele>28.0155029</ele>
        <time>2014-09-14T15:11:41Z</time>
      </trkpt>
      <trkpt lat="49.49957" lon="0.63592">
        <ele>28.4962158</ele>
        <time>2014-09-14T15:11:48Z</time>
      </trkpt>
      <trkpt lat="49.49959" lon="0.63575">
        <ele>30.4188232</ele>
        <time>2014-09-14T15:11:56Z</time>
      </trkpt>
      <trkpt lat="49.49959" lon="0.63558">
        <ele>33.3028564</ele>
        <time>2014-09-14T15:12:06Z</time>
      </trkpt>
      <trkpt lat="49.49961" lon="0.63555">
        <ele>33.7834473</ele>
        <time>2014-09-14T15:12:08Z</time>
      </trkpt>
      <trkpt lat="49.49963" lon="0.63538">
        <ele>34.2641602</ele>
        <time>2014-09-14T15:12:22Z</time>
      </trkpt>
      <trkpt lat="49.49963" lon="0.63525">
        <ele>41.473999</ele>
        <time>2014-09-14T15:14:10Z</time>
      </trkpt>
      <trkpt lat="49.49963" lon="0.63515">
        <ele>49.6452637</ele>
        <time>2014-09-14T15:14:16Z</time>
      </trkpt>
      <trkpt lat="49.49963" lon="0.63504">
        <ele>54.4517822</ele>
        <time>2014-09-14T15:14:24Z</time>
      </trkpt>
      <trkpt lat="49.49963" lon="0.63498">
        <ele>55.8937988</ele>
        <time>2014-09-14T15:14:29Z</time>
      </trkpt>
      <trkpt lat="49.49965" lon="0.63483">
        <ele>60.7003174</ele>
        <time>2014-09-14T15:14:37Z</time>
      </trkpt>
      <trkpt lat="49.49967" lon="0.63483">
        <ele>61.6617432</ele>
        <time>2014-09-14T15:14:40Z</time>
      </trkpt>
      <trkpt lat="49.49972" lon="0.6348">
        <ele>62.6229248</ele>
        <time>2014-09-14T15:14:46Z</time>
      </trkpt>
      <trkpt lat="49.49978" lon="0.6348">
        <ele>62.6229248</ele>
        <time>2014-09-14T15:14:52Z</time>
      </trkpt>
      <trkpt lat="49.4998" lon="0.6348">
        <ele>62.142334</ele>
        <time>2014-09-14T15:14:55Z</time>
      </trkpt>
      <trkpt lat="49.49989" lon="0.63483">
        <ele>60.2197266</ele>
        <time>2014-09-14T15:15:03Z</time>
      </trkpt>
      <trkpt lat="49.49995" lon="0.63483">
        <ele>58.77771</ele>
        <time>2014-09-14T15:15:10Z</time>
      </trkpt>
      <trkpt lat="49.50006" lon="0.63483">
        <ele>56.8551025</ele>
        <time>2014-09-14T15:15:20Z</time>
      </trkpt>
      <trkpt lat="49.50019" lon="0.63483">
        <ele>55.4130859</ele>
        <time>2014-09-14T15:15:31Z</time>
      </trkpt>
      <trkpt lat="49.50025" lon="0.63483">
        <ele>53.4904785</ele>
        <time>2014-09-14T15:15:38Z</time>
      </trkpt>
      <trkpt lat="49.5003" lon="0.63483">
        <ele>50.6065674</ele>
        <time>2014-09-14T15:15:45Z</time>
      </trkpt>
      <trkpt lat="49.50038" lon="0.63485">
        <ele>46.2806396</ele>
        <time>2014-09-14T15:15:54Z</time>
      </trkpt>
      <trkpt lat="49.50045" lon="0.63485">
        <ele>44.838623</ele>
        <time>2014-09-14T15:16:00Z</time>
      </trkpt>
      <trkpt lat="49.50047" lon="0.63487">
        <ele>44.3580322</ele>
        <time>2014-09-14T15:16:02Z</time>
      </trkpt>
      <trkpt lat="49.50051" lon="0.63487">
        <ele>42.9160156</ele>
        <time>2014-09-14T15:16:06Z</time>
      </trkpt>
      <trkpt lat="49.50062" lon="0.63489">
        <ele>39.5512695</ele>
        <time>2014-09-14T15:16:16Z</time>
      </trkpt>
      <trkpt lat="49.5007" lon="0.63491">
        <ele>38.109375</ele>
        <time>2014-09-14T15:16:24Z</time>
      </trkpt>
      <trkpt lat="49.50083" lon="0.63493">
        <ele>38.109375</ele>
        <time>2014-09-14T15:16:34Z</time>
      </trkpt>
      <trkpt lat="49.5009" lon="0.63495">
        <ele>36.1867676</ele>
        <time>2014-09-14T15:16:41Z</time>
      </trkpt>
      <trkpt lat="49.50098" lon="0.63498">
        <ele>35.2254639</ele>
        <time>2014-09-14T15:16:50Z</time>
      </trkpt>
      <trkpt lat="49.50109" lon="0.635">
        <ele>34.2641602</ele>
        <time>2014-09-14T15:17:00Z</time>
      </trkpt>
      <trkpt lat="49.50118" lon="0.63498">
        <ele>35.7060547</ele>
        <time>2014-09-14T15:17:09Z</time>
      </trkpt>
      <trkpt lat="49.50128" lon="0.63491">
        <ele>37.1480713</ele>
        <time>2014-09-14T15:17:21Z</time>
      </trkpt>
      <trkpt lat="49.50143" lon="0.63489">
        <ele>35.7060547</ele>
        <time>2014-09-14T15:17:35Z</time>
      </trkpt>
      <trkpt lat="49.5015" lon="0.63487">
        <ele>35.2254639</ele>
        <time>2014-09-14T15:17:42Z</time>
      </trkpt>
      <trkpt lat="49.50156" lon="0.63485">
        <ele>35.7060547</ele>
        <time>2014-09-14T15:17:51Z</time>
      </trkpt>
      <trkpt lat="49.50167" lon="0.63489">
        <ele>37.6286621</ele>
        <time>2014-09-14T15:17:59Z</time>
      </trkpt>
      <trkpt lat="49.50169" lon="0.63491">
        <ele>37.6286621</ele>
        <time>2014-09-14T15:18:00Z</time>
      </trkpt>
      <trkpt lat="49.50176" lon="0.63495">
        <ele>37.1480713</ele>
        <time>2014-09-14T15:18:07Z</time>
      </trkpt>
      <trkpt lat="49.50182" lon="0.635">
        <ele>35.7060547</ele>
        <time>2014-09-14T15:18:15Z</time>
      </trkpt>
      <trkpt lat="49.50191" lon="0.63506">
        <ele>31.8607178</ele>
        <time>2014-09-14T15:18:27Z</time>
      </trkpt>
      <trkpt lat="49.50199" lon="0.63515">
        <ele>28.0155029</ele>
        <time>2014-09-14T15:18:37Z</time>
      </trkpt>
      <trkpt lat="49.50203" lon="0.63523">
        <ele>25.1317139</ele>
        <time>2014-09-14T15:18:47Z</time>
      </trkpt>
      <trkpt lat="49.50212" lon="0.6353">
        <ele>25.1317139</ele>
        <time>2014-09-14T15:18:57Z</time>
      </trkpt>
      <trkpt lat="49.50218" lon="0.63532">
        <ele>26.0928955</ele>
        <time>2014-09-14T15:19:05Z</time>
      </trkpt>
      <trkpt lat="49.50229" lon="0.63513">
        <ele>73.6782227</ele>
        <time>2014-09-14T15:29:46Z</time>
      </trkpt>
      <trkpt lat="49.50236" lon="0.63508">
        <ele>73.6782227</ele>
        <time>2014-09-14T15:29:53Z</time>
      </trkpt>
      <trkpt lat="49.50246" lon="0.63506">
        <ele>73.1976318</ele>
        <time>2014-09-14T15:30:06Z</time>
      </trkpt>
      <trkpt lat="49.50255" lon="0.63502">
        <ele>73.1976318</ele>
        <time>2014-09-14T15:30:16Z</time>
      </trkpt>
      <trkpt lat="49.50266" lon="0.63498">
        <ele>73.6782227</ele>
        <time>2014-09-14T15:30:25Z</time>
      </trkpt>
      <trkpt lat="49.50274" lon="0.63493">
        <ele>74.6395264</ele>
        <time>2014-09-14T15:30:34Z</time>
      </trkpt>
      <trkpt lat="49.50283" lon="0.63487">
        <ele>76.0814209</ele>
        <time>2014-09-14T15:30:44Z</time>
      </trkpt>
      <trkpt lat="49.50287" lon="0.63485">
        <ele>76.5621338</ele>
        <time>2014-09-14T15:30:51Z</time>
      </trkpt>
      <trkpt lat="49.50298" lon="0.6348">
        <ele>78.0040283</ele>
        <time>2014-09-14T15:31:26Z</time>
      </trkpt>
      <trkpt lat="49.50304" lon="0.63476">
        <ele>79.9266357</ele>
        <time>2014-09-14T15:31:34Z</time>
      </trkpt>
      <trkpt lat="49.50313" lon="0.63474">
        <ele>81.3687744</ele>
        <time>2014-09-14T15:31:42Z</time>
      </trkpt>
      <trkpt lat="49.50313" lon="0.63474">
        <ele>81.8493652</ele>
        <time>2014-09-14T15:32:02Z</time>
      </trkpt>
      <trkpt lat="49.50319" lon="0.63472">
        <ele>82.810791</ele>
        <time>2014-09-14T15:32:27Z</time>
      </trkpt>
      <trkpt lat="49.50324" lon="0.6347">
        <ele>84.2526855</ele>
        <time>2014-09-14T15:32:35Z</time>
      </trkpt>
      <trkpt lat="49.50332" lon="0.63465">
        <ele>85.6945801</ele>
        <time>2014-09-14T15:32:47Z</time>
      </trkpt>
      <trkpt lat="49.50343" lon="0.63463">
        <ele>86.6560059</ele>
        <time>2014-09-14T15:32:57Z</time>
      </trkpt>
      <trkpt lat="49.50347" lon="0.63461">
        <ele>87.1365967</ele>
        <time>2014-09-14T15:33:04Z</time>
      </trkpt>
      <trkpt lat="49.5036" lon="0.63461">
        <ele>86.6560059</ele>
        <time>2014-09-14T15:33:18Z</time>
      </trkpt>
      <trkpt lat="49.50382" lon="0.63468">
        <ele>85.2139893</ele>
        <time>2014-09-14T15:33:46Z</time>
      </trkpt>
      <trkpt lat="49.50394" lon="0.6347">
        <ele>85.6945801</ele>
        <time>2014-09-14T15:33:59Z</time>
      </trkpt>
      <trkpt lat="49.50405" lon="0.6347">
        <ele>85.6945801</ele>
        <time>2014-09-14T15:34:10Z</time>
      </trkpt>
      <trkpt lat="49.50452" lon="0.6348">
        <ele>78.0040283</ele>
        <time>2014-09-14T15:34:58Z</time>
      </trkpt>
      <trkpt lat="49.50461" lon="0.63483">
        <ele>77.0428467</ele>
        <time>2014-09-14T15:35:07Z</time>
      </trkpt>
      <trkpt lat="49.50474" lon="0.63485">
        <ele>78.4847412</ele>
        <time>2014-09-14T15:35:17Z</time>
      </trkpt>
      <trkpt lat="49.50491" lon="0.63489">
        <ele>78.0040283</ele>
        <time>2014-09-14T15:35:29Z</time>
      </trkpt>
      <trkpt lat="49.50491" lon="0.63489">
        <ele>77.5234375</ele>
        <time>2014-09-14T15:35:30Z</time>
      </trkpt>
      <trkpt lat="49.505" lon="0.63493">
        <ele>78.0040283</ele>
        <time>2014-09-14T15:35:37Z</time>
      </trkpt>
      <trkpt lat="49.5051" lon="0.63491">
        <ele>79.4460449</ele>
        <time>2014-09-14T15:35:47Z</time>
      </trkpt>
      <trkpt lat="49.50519" lon="0.63478">
        <ele>81.8493652</ele>
        <time>2014-09-14T15:36:04Z</time>
      </trkpt>
      <trkpt lat="49.50527" lon="0.63489">
        <ele>81.8493652</ele>
        <time>2014-09-14T15:36:17Z</time>
      </trkpt>
      <trkpt lat="49.50532" lon="0.63502">
        <ele>81.8493652</ele>
        <time>2014-09-14T15:36:29Z</time>
      </trkpt>
      <trkpt lat="49.50532" lon="0.63504">
        <ele>84.2526855</ele>
        <time>2014-09-14T15:37:38Z</time>
      </trkpt>
      <trkpt lat="49.5053" lon="0.63498">
        <ele>86.175293</ele>
        <time>2014-09-14T15:37:44Z</time>
      </trkpt>
      <trkpt lat="49.50525" lon="0.63483">
        <ele>88.0980225</ele>
        <time>2014-09-14T15:37:53Z</time>
      </trkpt>
      <trkpt lat="49.50521" lon="0.63468">
        <ele>90.0206299</ele>
        <time>2014-09-14T15:38:03Z</time>
      </trkpt>
      <trkpt lat="49.50515" lon="0.6345">
        <ele>91.9432373</ele>
        <time>2014-09-14T15:38:13Z</time>
      </trkpt>
      <trkpt lat="49.50508" lon="0.63429">
        <ele>93.8658447</ele>
        <time>2014-09-14T15:38:25Z</time>
      </trkpt>
      <trkpt lat="49.50504" lon="0.63416">
        <ele>94.8271484</ele>
        <time>2014-09-14T15:38:34Z</time>
      </trkpt>
      <trkpt lat="49.50497" lon="0.63401">
        <ele>95.7884521</ele>
        <time>2014-09-14T15:38:43Z</time>
      </trkpt>
      <trkpt lat="49.50493" lon="0.63382">
        <ele>97.2304688</ele>
        <time>2014-09-14T15:38:54Z</time>
      </trkpt>
      <trkpt lat="49.50487" lon="0.6336">
        <ele>97.2304688</ele>
        <time>2014-09-14T15:39:06Z</time>
      </trkpt>
      <trkpt lat="49.50482" lon="0.63345">
        <ele>96.7498779</ele>
        <time>2014-09-14T15:39:16Z</time>
      </trkpt>
      <trkpt lat="49.50478" lon="0.63332">
        <ele>93.3851318</ele>
        <time>2014-09-14T15:39:26Z</time>
      </trkpt>
      <trkpt lat="49.50474" lon="0.63319">
        <ele>90.9819336</ele>
        <time>2014-09-14T15:39:33Z</time>
      </trkpt>
      <trkpt lat="49.50467" lon="0.63302">
        <ele>88.0980225</ele>
        <time>2014-09-14T15:39:44Z</time>
      </trkpt>
      <trkpt lat="49.50465" lon="0.63292">
        <ele>87.1365967</ele>
        <time>2014-09-14T15:39:51Z</time>
      </trkpt>
      <trkpt lat="49.50461" lon="0.63277">
        <ele>86.6560059</ele>
        <time>2014-09-14T15:40:00Z</time>
      </trkpt>
      <trkpt lat="49.50454" lon="0.63259">
        <ele>86.6560059</ele>
        <time>2014-09-14T15:40:09Z</time>
      </trkpt>
      <trkpt lat="49.50452" lon="0.63255">
        <ele>87.1365967</ele>
        <time>2014-09-14T15:40:13Z</time>
      </trkpt>
      <trkpt lat="49.5045" lon="0.63249">
        <ele>87.6171875</ele>
        <time>2014-09-14T15:40:19Z</time>
      </trkpt>
      <trkpt lat="49.50446" lon="0.6324">
        <ele>88.0980225</ele>
        <time>2014-09-14T15:40:35Z</time>
      </trkpt>
      <trkpt lat="49.50442" lon="0.63229">
        <ele>88.0980225</ele>
        <time>2014-09-14T15:40:42Z</time>
      </trkpt>
      <trkpt lat="49.50437" lon="0.63221">
        <ele>86.175293</ele>
        <time>2014-09-14T15:40:49Z</time>
      </trkpt>
      <trkpt lat="49.50433" lon="0.6321">
        <ele>86.175293</ele>
        <time>2014-09-14T15:40:56Z</time>
      </trkpt>
      <trkpt lat="49.50429" lon="0.63197">
        <ele>85.2139893</ele>
        <time>2014-09-14T15:41:04Z</time>
      </trkpt>
      <trkpt lat="49.50427" lon="0.63186">
        <ele>84.2526855</ele>
        <time>2014-09-14T15:41:11Z</time>
      </trkpt>
      <trkpt lat="49.50424" lon="0.63167">
        <ele>82.3300781</ele>
        <time>2014-09-14T15:41:22Z</time>
      </trkpt>
      <trkpt lat="49.50422" lon="0.63152">
        <ele>81.8493652</ele>
        <time>2014-09-14T15:41:31Z</time>
      </trkpt>
      <trkpt lat="49.50422" lon="0.63135">
        <ele>81.8493652</ele>
        <time>2014-09-14T15:41:40Z</time>
      </trkpt>
      <trkpt lat="49.50422" lon="0.63118">
        <ele>81.3687744</ele>
        <time>2014-09-14T15:41:50Z</time>
      </trkpt>
      <trkpt lat="49.5042" lon="0.63103">
        <ele>83.7719727</ele>
        <time>2014-09-14T15:42:01Z</time>
      </trkpt>
      <trkpt lat="49.50418" lon="0.63096">
        <ele>84.7333984</ele>
        <time>2014-09-14T15:42:10Z</time>
      </trkpt>
      <trkpt lat="49.50418" lon="0.63094">
        <ele>85.2139893</ele>
        <time>2014-09-14T15:42:12Z</time>
      </trkpt>
      <trkpt lat="49.50416" lon="0.63081">
        <ele>85.2139893</ele>
        <time>2014-09-14T15:42:21Z</time>
      </trkpt>
      <trkpt lat="49.50414" lon="0.63068">
        <ele>85.6945801</ele>
        <time>2014-09-14T15:42:28Z</time>
      </trkpt>
      <trkpt lat="49.50412" lon="0.63056">
        <ele>85.2139893</ele>
        <time>2014-09-14T15:42:36Z</time>
      </trkpt>
      <trkpt lat="49.50412" lon="0.63043">
        <ele>84.7333984</ele>
        <time>2014-09-14T15:42:45Z</time>
      </trkpt>
      <trkpt lat="49.50407" lon="0.63025">
        <ele>82.810791</ele>
        <time>2014-09-14T15:42:56Z</time>
      </trkpt>
      <trkpt lat="49.50405" lon="0.63013">
        <ele>81.8493652</ele>
        <time>2014-09-14T15:43:03Z</time>
      </trkpt>
      <trkpt lat="49.50403" lon="0.62998">
        <ele>80.8881836</ele>
        <time>2014-09-14T15:43:13Z</time>
      </trkpt>
      <trkpt lat="49.50403" lon="0.6298">
        <ele>77.5234375</ele>
        <time>2014-09-14T15:43:26Z</time>
      </trkpt>
      <trkpt lat="49.50401" lon="0.62961">
        <ele>78.0040283</ele>
        <time>2014-09-14T15:43:38Z</time>
      </trkpt>
      <trkpt lat="49.50399" lon="0.62944">
        <ele>78.0040283</ele>
        <time>2014-09-14T15:43:46Z</time>
      </trkpt>
      <trkpt lat="49.50401" lon="0.62942">
        <ele>77.5234375</ele>
        <time>2014-09-14T15:43:48Z</time>
      </trkpt>
      <trkpt lat="49.50401" lon="0.62933">
        <ele>77.5234375</ele>
        <time>2014-09-14T15:43:51Z</time>
      </trkpt>
      <trkpt lat="49.50403" lon="0.6292">
        <ele>75.1202393</ele>
        <time>2014-09-14T15:44:01Z</time>
      </trkpt>
      <trkpt lat="49.50409" lon="0.62903">
        <ele>72.7169189</ele>
        <time>2014-09-14T15:44:13Z</time>
      </trkpt>
      <trkpt lat="49.50409" lon="0.62901">
        <ele>72.2362061</ele>
        <time>2014-09-14T15:44:14Z</time>
      </trkpt>
      <trkpt lat="49.50416" lon="0.62892">
        <ele>70.3134766</ele>
        <time>2014-09-14T15:44:23Z</time>
      </trkpt>
      <trkpt lat="49.50429" lon="0.62884">
        <ele>70.3134766</ele>
        <time>2014-09-14T15:44:35Z</time>
      </trkpt>
      <trkpt lat="49.50437" lon="0.62875">
        <ele>72.2362061</ele>
        <time>2014-09-14T15:44:43Z</time>
      </trkpt>
      <trkpt lat="49.50444" lon="0.62869">
        <ele>73.6782227</ele>
        <time>2014-09-14T15:44:50Z</time>
      </trkpt>
      <trkpt lat="49.50452" lon="0.62865">
        <ele>76.5621338</ele>
        <time>2014-09-14T15:44:58Z</time>
      </trkpt>
      <trkpt lat="49.50467" lon="0.62852">
        <ele>85.6945801</ele>
        <time>2014-09-14T15:45:17Z</time>
      </trkpt>
      <trkpt lat="49.50478" lon="0.62837">
        <ele>91.9432373</ele>
        <time>2014-09-14T15:45:34Z</time>
      </trkpt>
      <trkpt lat="49.50495" lon="0.62815">
        <ele>94.8271484</ele>
        <time>2014-09-14T15:45:57Z</time>
      </trkpt>
      <trkpt lat="49.50508" lon="0.62802">
        <ele>93.8658447</ele>
        <time>2014-09-14T15:46:08Z</time>
      </trkpt>
      <trkpt lat="49.50517" lon="0.62794">
        <ele>91.9432373</ele>
        <time>2014-09-14T15:46:17Z</time>
      </trkpt>
      <trkpt lat="49.50523" lon="0.62781">
        <ele>90.5013428</ele>
        <time>2014-09-14T15:46:27Z</time>
      </trkpt>
      <trkpt lat="49.5053" lon="0.6277">
        <ele>88.5787354</ele>
        <time>2014-09-14T15:46:35Z</time>
      </trkpt>
      <trkpt lat="49.50536" lon="0.62757">
        <ele>87.6171875</ele>
        <time>2014-09-14T15:46:43Z</time>
      </trkpt>
      <trkpt lat="49.50549" lon="0.62736">
        <ele>87.6171875</ele>
        <time>2014-09-14T15:46:59Z</time>
      </trkpt>
      <trkpt lat="49.50557" lon="0.62727">
        <ele>87.6171875</ele>
        <time>2014-09-14T15:47:12Z</time>
      </trkpt>
      <trkpt lat="49.50564" lon="0.62719">
        <ele>88.0980225</ele>
        <time>2014-09-14T15:47:20Z</time>
      </trkpt>
      <trkpt lat="49.5057" lon="0.62712">
        <ele>89.539917</ele>
        <time>2014-09-14T15:47:28Z</time>
      </trkpt>
      <trkpt lat="49.50588" lon="0.62693">
        <ele>90.9819336</ele>
        <time>2014-09-14T15:47:48Z</time>
      </trkpt>
      <trkpt lat="49.5059" lon="0.62691">
        <ele>91.4625244</ele>
        <time>2014-09-14T15:47:51Z</time>
      </trkpt>
      <trkpt lat="49.50598" lon="0.62682">
        <ele>91.9432373</ele>
        <time>2014-09-14T15:47:58Z</time>
      </trkpt>
      <trkpt lat="49.50607" lon="0.62674">
        <ele>95.7884521</ele>
        <time>2014-09-14T15:48:06Z</time>
      </trkpt>
      <trkpt lat="49.50613" lon="0.62669">
        <ele>97.7111816</ele>
        <time>2014-09-14T15:48:11Z</time>
      </trkpt>
      <trkpt lat="49.5062" lon="0.62659">
        <ele>99.1530762</ele>
        <time>2014-09-14T15:48:19Z</time>
      </trkpt>
      <trkpt lat="49.50624" lon="0.62654">
        <ele>100.114502</ele>
        <time>2014-09-14T15:48:23Z</time>
      </trkpt>
      <trkpt lat="49.50626" lon="0.62646">
        <ele>102.5177002</ele>
        <time>2014-09-14T15:48:37Z</time>
      </trkpt>
      <trkpt lat="49.5063" lon="0.6265">
        <ele>105.4017334</ele>
        <time>2014-09-14T15:49:26Z</time>
      </trkpt>
      <trkpt lat="49.50635" lon="0.62661">
        <ele>104.4404297</ele>
        <time>2014-09-14T15:49:36Z</time>
      </trkpt>
      <trkpt lat="49.50637" lon="0.62671">
        <ele>102.5177002</ele>
        <time>2014-09-14T15:50:18Z</time>
      </trkpt>
      <trkpt lat="49.50639" lon="0.62682">
        <ele>101.0756836</ele>
        <time>2014-09-14T15:50:27Z</time>
      </trkpt>
      <trkpt lat="49.50641" lon="0.62693">
        <ele>98.6724854</ele>
        <time>2014-09-14T15:50:35Z</time>
      </trkpt>
      <trkpt lat="49.50645" lon="0.62701">
        <ele>98.1918945</ele>
        <time>2014-09-14T15:50:46Z</time>
      </trkpt>
      <trkpt lat="49.50645" lon="0.6271">
        <ele>100.5950928</ele>
        <time>2014-09-14T15:51:03Z</time>
      </trkpt>
      <trkpt lat="49.5065" lon="0.62723">
        <ele>102.5177002</ele>
        <time>2014-09-14T15:51:10Z</time>
      </trkpt>
      <trkpt lat="49.50654" lon="0.62738">
        <ele>105.8824463</ele>
        <time>2014-09-14T15:51:20Z</time>
      </trkpt>
      <trkpt lat="49.50658" lon="0.62753">
        <ele>106.8436279</ele>
        <time>2014-09-14T15:51:29Z</time>
      </trkpt>
      <trkpt lat="49.5066" lon="0.6277">
        <ele>106.8436279</ele>
        <time>2014-09-14T15:51:40Z</time>
      </trkpt>
      <trkpt lat="49.50665" lon="0.62789">
        <ele>106.3630371</ele>
        <time>2014-09-14T15:51:51Z</time>
      </trkpt>
      <trkpt lat="49.50665" lon="0.62794">
        <ele>106.3630371</ele>
        <time>2014-09-14T15:51:53Z</time>
      </trkpt>
      <trkpt lat="49.50667" lon="0.628">
        <ele>106.3630371</ele>
        <time>2014-09-14T15:51:57Z</time>
      </trkpt>
      <trkpt lat="49.50671" lon="0.62819">
        <ele>105.4017334</ele>
        <time>2014-09-14T15:52:09Z</time>
      </trkpt>
      <trkpt lat="49.50673" lon="0.6283">
        <ele>106.3630371</ele>
        <time>2014-09-14T15:52:17Z</time>
      </trkpt>
      <trkpt lat="49.50678" lon="0.62845">
        <ele>105.8824463</ele>
        <time>2014-09-14T15:52:28Z</time>
      </trkpt>
      <trkpt lat="49.50682" lon="0.6286">
        <ele>104.9210205</ele>
        <time>2014-09-14T15:52:37Z</time>
      </trkpt>
      <trkpt lat="49.50684" lon="0.62871">
        <ele>105.8824463</ele>
        <time>2014-09-14T15:52:46Z</time>
      </trkpt>
      <trkpt lat="49.50686" lon="0.62886">
        <ele>106.8436279</ele>
        <time>2014-09-14T15:53:03Z</time>
      </trkpt>
      <trkpt lat="49.50693" lon="0.62903">
        <ele>108.7662354</ele>
        <time>2014-09-14T15:53:14Z</time>
      </trkpt>
      <trkpt lat="49.50697" lon="0.62925">
        <ele>109.2469482</ele>
        <time>2014-09-14T15:53:27Z</time>
      </trkpt>
      <trkpt lat="49.50699" lon="0.62938">
        <ele>109.7276611</ele>
        <time>2014-09-14T15:53:36Z</time>
      </trkpt>
      <trkpt lat="49.50701" lon="0.62944">
        <ele>111.1695557</ele>
        <time>2014-09-14T15:53:49Z</time>
      </trkpt>
      <trkpt lat="49.50703" lon="0.62953">
        <ele>112.6115723</ele>
        <time>2014-09-14T15:54:09Z</time>
      </trkpt>
      <trkpt lat="49.50708" lon="0.62972">
        <ele>113.0922852</ele>
        <time>2014-09-14T15:54:20Z</time>
      </trkpt>
      <trkpt lat="49.50712" lon="0.62993">
        <ele>110.6888428</ele>
        <time>2014-09-14T15:54:33Z</time>
      </trkpt>
      <trkpt lat="49.50712" lon="0.63008">
        <ele>109.7276611</ele>
        <time>2014-09-14T15:54:43Z</time>
      </trkpt>
      <trkpt lat="49.50714" lon="0.63023">
        <ele>110.6888428</ele>
        <time>2014-09-14T15:54:52Z</time>
      </trkpt>
      <trkpt lat="49.50718" lon="0.63045">
        <ele>112.6115723</ele>
        <time>2014-09-14T15:55:03Z</time>
      </trkpt>
      <trkpt lat="49.50721" lon="0.63066">
        <ele>113.572998</ele>
        <time>2014-09-14T15:55:14Z</time>
      </trkpt>
      <trkpt lat="49.50725" lon="0.63088">
        <ele>115.0148926</ele>
        <time>2014-09-14T15:55:26Z</time>
      </trkpt>
      <trkpt lat="49.50727" lon="0.63094">
        <ele>115.4956055</ele>
        <time>2014-09-14T15:55:30Z</time>
      </trkpt>
      <trkpt lat="49.50736" lon="0.63111">
        <ele>116.4567871</ele>
        <time>2014-09-14T15:55:42Z</time>
      </trkpt>
      <trkpt lat="49.50736" lon="0.63113">
        <ele>116.9375</ele>
        <time>2014-09-14T15:55:57Z</time>
      </trkpt>
      <trkpt lat="49.50736" lon="0.63118">
        <ele>117.4182129</ele>
        <time>2014-09-14T15:56:09Z</time>
      </trkpt>
      <trkpt lat="49.5074" lon="0.63131">
        <ele>117.8988037</ele>
        <time>2014-09-14T15:56:18Z</time>
      </trkpt>
      <trkpt lat="49.50746" lon="0.63152">
        <ele>113.572998</ele>
        <time>2014-09-14T15:56:34Z</time>
      </trkpt>
      <trkpt lat="49.50751" lon="0.63165">
        <ele>109.7276611</ele>
        <time>2014-09-14T15:56:44Z</time>
      </trkpt>
      <trkpt lat="49.50757" lon="0.63176">
        <ele>107.3243408</ele>
        <time>2014-09-14T15:56:57Z</time>
      </trkpt>
      <trkpt lat="49.50763" lon="0.63193">
        <ele>103.4790039</ele>
        <time>2014-09-14T15:57:10Z</time>
      </trkpt>
      <trkpt lat="49.50768" lon="0.63206">
        <ele>99.6337891</ele>
        <time>2014-09-14T15:57:19Z</time>
      </trkpt>
      <trkpt lat="49.50776" lon="0.63244">
        <ele>86.175293</ele>
        <time>2014-09-14T15:57:43Z</time>
      </trkpt>
      <trkpt lat="49.50787" lon="0.63307">
        <ele>85.2139893</ele>
        <time>2014-09-14T15:58:20Z</time>
      </trkpt>
      <trkpt lat="49.50766" lon="0.6339">
        <ele>94.8271484</ele>
        <time>2014-09-14T15:59:13Z</time>
      </trkpt>
      <trkpt lat="49.50753" lon="0.63418">
        <ele>94.8271484</ele>
        <time>2014-09-14T16:00:15Z</time>
      </trkpt>
      <trkpt lat="49.50727" lon="0.63519">
        <ele>92.904541</ele>
        <time>2014-09-14T16:01:17Z</time>
      </trkpt>
      <trkpt lat="49.50738" lon="0.63547">
        <ele>80.8881836</ele>
        <time>2014-09-14T16:01:46Z</time>
      </trkpt>
      <trkpt lat="49.50759" lon="0.63566">
        <ele>74.6395264</ele>
        <time>2014-09-14T16:02:09Z</time>
      </trkpt>
      <trkpt lat="49.50774" lon="0.63577">
        <ele>73.6782227</ele>
        <time>2014-09-14T16:02:24Z</time>
      </trkpt>
      <trkpt lat="49.50785" lon="0.63588">
        <ele>74.1588135</ele>
        <time>2014-09-14T16:02:34Z</time>
      </trkpt>
      <trkpt lat="49.50794" lon="0.63592">
        <ele>76.0814209</ele>
        <time>2014-09-14T16:02:42Z</time>
      </trkpt>
      <trkpt lat="49.50806" lon="0.63592">
        <ele>78.4847412</ele>
        <time>2014-09-14T16:02:52Z</time>
      </trkpt>
      <trkpt lat="49.50817" lon="0.63594">
        <ele>81.3687744</ele>
        <time>2014-09-14T16:03:02Z</time>
      </trkpt>
      <trkpt lat="49.50819" lon="0.63596">
        <ele>87.6171875</ele>
        <time>2014-09-14T16:03:05Z</time>
      </trkpt>
      <trkpt lat="49.50839" lon="0.63598">
        <ele>102.0371094</ele>
        <time>2014-09-14T16:03:17Z</time>
      </trkpt>
      <trkpt lat="49.50854" lon="0.63603">
        <ele>106.8436279</ele>
        <time>2014-09-14T16:03:31Z</time>
      </trkpt>
      <trkpt lat="49.50854" lon="0.63603">
        <ele>106.8436279</ele>
        <time>2014-09-14T16:03:32Z</time>
      </trkpt>
      <trkpt lat="49.5086" lon="0.63603">
        <ele>107.3243408</ele>
        <time>2014-09-14T16:03:39Z</time>
      </trkpt>
      <trkpt lat="49.50864" lon="0.63603">
        <ele>107.3243408</ele>
        <time>2014-09-14T16:03:41Z</time>
      </trkpt>
      <trkpt lat="49.50875" lon="0.63603">
        <ele>108.2856445</ele>
        <time>2014-09-14T16:03:52Z</time>
      </trkpt>
      <trkpt lat="49.50888" lon="0.63605">
        <ele>108.7662354</ele>
        <time>2014-09-14T16:04:04Z</time>
      </trkpt>
      <trkpt lat="49.50903" lon="0.63611">
        <ele>107.3243408</ele>
        <time>2014-09-14T16:04:17Z</time>
      </trkpt>
      <trkpt lat="49.50916" lon="0.63618">
        <ele>106.3630371</ele>
        <time>2014-09-14T16:04:29Z</time>
      </trkpt>
      <trkpt lat="49.50931" lon="0.63628">
        <ele>105.4017334</ele>
        <time>2014-09-14T16:04:42Z</time>
      </trkpt>
      <trkpt lat="49.50944" lon="0.63639">
        <ele>104.4404297</ele>
        <time>2014-09-14T16:04:55Z</time>
      </trkpt>
      <trkpt lat="49.50948" lon="0.63641">
        <ele>103.9597168</ele>
        <time>2014-09-14T16:04:58Z</time>
      </trkpt>
      <trkpt lat="49.50961" lon="0.63648">
        <ele>103.4790039</ele>
        <time>2014-09-14T16:05:10Z</time>
      </trkpt>
      <trkpt lat="49.50976" lon="0.63652">
        <ele>102.998291</ele>
        <time>2014-09-14T16:05:22Z</time>
      </trkpt>
      <trkpt lat="49.50989" lon="0.63654">
        <ele>102.5177002</ele>
        <time>2014-09-14T16:05:34Z</time>
      </trkpt>
      <trkpt lat="49.50997" lon="0.63654">
        <ele>101.5563965</ele>
        <time>2014-09-14T16:05:45Z</time>
      </trkpt>
      <trkpt lat="49.51008" lon="0.63656">
        <ele>100.5950928</ele>
        <time>2014-09-14T16:06:07Z</time>
      </trkpt>
      <trkpt lat="49.51019" lon="0.63658">
        <ele>98.6724854</ele>
        <time>2014-09-14T16:06:17Z</time>
      </trkpt>
      <trkpt lat="49.51025" lon="0.63658">
        <ele>97.2304688</ele>
        <time>2014-09-14T16:06:25Z</time>
      </trkpt>
      <trkpt lat="49.5103" lon="0.63661">
        <ele>95.7884521</ele>
        <time>2014-09-14T16:06:29Z</time>
      </trkpt>
      <trkpt lat="49.51034" lon="0.63661">
        <ele>94.3465576</ele>
        <time>2014-09-14T16:06:33Z</time>
      </trkpt>
      <trkpt lat="49.51042" lon="0.63661">
        <ele>91.9432373</ele>
        <time>2014-09-14T16:06:41Z</time>
      </trkpt>
      <trkpt lat="49.51051" lon="0.63663">
        <ele>89.0593262</ele>
        <time>2014-09-14T16:06:50Z</time>
      </trkpt>
      <trkpt lat="49.51068" lon="0.63665">
        <ele>83.2913818</ele>
        <time>2014-09-14T16:07:06Z</time>
      </trkpt>
      <trkpt lat="49.51083" lon="0.63674">
        <ele>81.3687744</ele>
        <time>2014-09-14T16:07:17Z</time>
      </trkpt>
      <trkpt lat="49.51087" lon="0.63682">
        <ele>78.0040283</ele>
        <time>2014-09-14T16:07:28Z</time>
      </trkpt>
      <trkpt lat="49.5109" lon="0.63691">
        <ele>78.0040283</ele>
        <time>2014-09-14T16:07:34Z</time>
      </trkpt>
      <trkpt lat="49.51092" lon="0.6371">
        <ele>78.9654541</ele>
        <time>2014-09-14T16:07:45Z</time>
      </trkpt>
      <trkpt lat="49.51092" lon="0.63716">
        <ele>82.3300781</ele>
        <time>2014-09-14T16:07:48Z</time>
      </trkpt>
      <trkpt lat="49.51092" lon="0.63721">
        <ele>86.175293</ele>
        <time>2014-09-14T16:07:57Z</time>
      </trkpt>
      <trkpt lat="49.51092" lon="0.63725">
        <ele>87.6171875</ele>
        <time>2014-09-14T16:08:17Z</time>
      </trkpt>
      <trkpt lat="49.51092" lon="0.63742">
        <ele>85.6945801</ele>
        <time>2014-09-14T16:08:30Z</time>
      </trkpt>
      <trkpt lat="49.51094" lon="0.63744">
        <ele>85.2139893</ele>
        <time>2014-09-14T16:08:32Z</time>
      </trkpt>
      <trkpt lat="49.51096" lon="0.63761">
        <ele>81.8493652</ele>
        <time>2014-09-14T16:08:42Z</time>
      </trkpt>
      <trkpt lat="49.511" lon="0.63768">
        <ele>78.9654541</ele>
        <time>2014-09-14T16:08:49Z</time>
      </trkpt>
      <trkpt lat="49.51109" lon="0.63781">
        <ele>71.7554932</ele>
        <time>2014-09-14T16:09:27Z</time>
      </trkpt>
      <trkpt lat="49.51118" lon="0.63783">
        <ele>70.7941895</ele>
        <time>2014-09-14T16:09:41Z</time>
      </trkpt>
      <trkpt lat="49.51148" lon="0.638">
        <ele>73.6782227</ele>
        <time>2014-09-14T16:10:03Z</time>
      </trkpt>
      <trkpt lat="49.51167" lon="0.63815">
        <ele>67.9102783</ele>
        <time>2014-09-14T16:10:32Z</time>
      </trkpt>
      <trkpt lat="49.51203" lon="0.63828">
        <ele>60.2197266</ele>
        <time>2014-09-14T16:11:03Z</time>
      </trkpt>
      <trkpt lat="49.51214" lon="0.63826">
        <ele>59.7391357</ele>
        <time>2014-09-14T16:11:09Z</time>
      </trkpt>
      <trkpt lat="49.51221" lon="0.63824">
        <ele>59.2584229</ele>
        <time>2014-09-14T16:11:13Z</time>
      </trkpt>
      <trkpt lat="49.51236" lon="0.63817">
        <ele>60.2197266</ele>
        <time>2014-09-14T16:11:24Z</time>
      </trkpt>
      <trkpt lat="49.51244" lon="0.63815">
        <ele>60.7003174</ele>
        <time>2014-09-14T16:11:32Z</time>
      </trkpt>
      <trkpt lat="49.51259" lon="0.63819">
        <ele>63.1036377</ele>
        <time>2014-09-14T16:11:52Z</time>
      </trkpt>
      <trkpt lat="49.51274" lon="0.63824">
        <ele>62.6229248</ele>
        <time>2014-09-14T16:12:02Z</time>
      </trkpt>
      <trkpt lat="49.51281" lon="0.63839">
        <ele>60.2197266</ele>
        <time>2014-09-14T16:12:18Z</time>
      </trkpt>
      <trkpt lat="49.51283" lon="0.63849">
        <ele>62.142334</ele>
        <time>2014-09-14T16:12:24Z</time>
      </trkpt>
      <trkpt lat="49.51283" lon="0.63862">
        <ele>62.142334</ele>
        <time>2014-09-14T16:12:34Z</time>
      </trkpt>
      <trkpt lat="49.51285" lon="0.63875">
        <ele>61.6617432</ele>
        <time>2014-09-14T16:12:44Z</time>
      </trkpt>
      <trkpt lat="49.51285" lon="0.63888">
        <ele>64.5456543</ele>
        <time>2014-09-14T16:12:50Z</time>
      </trkpt>
      <trkpt lat="49.51291" lon="0.63897">
        <ele>67.4296875</ele>
        <time>2014-09-14T16:12:57Z</time>
      </trkpt>
      <trkpt lat="49.51298" lon="0.63903">
        <ele>70.3134766</ele>
        <time>2014-09-14T16:13:09Z</time>
      </trkpt>
      <trkpt lat="49.513" lon="0.63903">
        <ele>72.2362061</ele>
        <time>2014-09-14T16:14:08Z</time>
      </trkpt>
    </trkseg>
  </trk>
</gpx>